UA152 / N17126 7700 Squawk Report (14th of September, 2017)

Aircraft B752 Reg No. N17126 Age 19 years old
Model 757 Jet engines 2 First flight 02-02-98
Registered 01-10-10 Rollout N/A Delivered 20-02-98
Construction No. 27566 Line No. 0790 Series 224
ADSHEX A11FA1 Airline name United Airlines Owner N/A
Airfield based Houston-George Bush Intercontinental~TX~N First tracked 2011-04-01 17:16:05

Flight history for N17126

Route Flight No Date Playback
Dublin (DUB) - Newark Liberty Intl (EWR) UA966 2017-09-21 12:14:00
Newark Liberty Intl (EWR) - Dublin (DUB) UA967 2017-09-21 09:55:00
San Francisco Intl (SFO) - Newark Liberty Intl (EWR) UA443 2017-09-21 04:22:00
General Edward Lawrence Logan Intl (BOS) - San Francisco Intl (SFO) UA207 2017-09-20 20:04:00
San Francisco Intl (SFO) - General Edward Lawrence Logan Intl (BOS) UA242 2017-09-20 12:14:00
George Bush Intercontinental (IAH) - San Francisco Intl (SFO) UA482 2017-09-19 23:43:00
Los Angeles Intl (LAX) - George Bush Intercontinental (IAH) UA1815 2017-09-19 18:18:00
Lihue (LIH) - Los Angeles Intl (LAX) UA1292 2017-09-19 11:32:00
George Bush Intercontinental (IAH) - Los Angeles Intl (LAX) - Lihue (LIH) UA1227 2017-09-19 06:31:00
George Bush Intercontinental (IAH) - Los Angeles Intl (LAX) UA1078 2017-09-18 22:12:00
San Francisco Intl (SFO) - George Bush Intercontinental (IAH) UA2405 2017-09-18 17:12:00
Kahului (OGG) - San Francisco Intl (SFO) UA1557 2017-09-18 13:41:00
General Edward Lawrence Logan Intl (BOS) - San Francisco Intl (SFO) - Kahului (OGG) UA1749 2017-09-18 06:30:00
George Bush Intercontinental (IAH) - San Francisco Intl (SFO) UA482 2017-09-17 23:46:00
Los Angeles Intl (LAX) - George Bush Intercontinental (IAH) UA1815 2017-09-17 16:33:00
Denver Intl (DEN) - Los Angeles Intl (LAX) UA723 2017-09-16 21:03:00
Newark Liberty Intl (EWR) - Denver Intl (DEN) UA1821 2017-09-16 18:58:00
John Wayne Arpt Orange Co (SNA) - Chicago Ohare Intl (ORD) - Newark Liberty Intl (EWR) - Phoenix Sky Harbor Intl (PHX) UA1611 2017-09-15 20:58:00
Washington Dulles Intl (IAD) - Chicago Ohare Intl (ORD) UA485 2017-09-15 15:52:00
Phoenix Sky Harbor Intl (PHX) - Chicago Ohare Intl (ORD) - Washington Dulles Intl (IAD) UA2000 2017-09-15 14:29:00
Time Lat Lon Altitude Heading Speed Vertical Rate
2017-09-14 07:05:27 GMT 53.42310 -6.24332 0 315 0 0
2017-09-14 07:05:25 GMT 53.42310 -6.24333 0 315 0 0
2017-09-14 07:05:16 GMT 53.42309 -6.24331 0 315 2 0
2017-09-14 07:05:05 GMT 53.42305 -6.24324 0 315 4 0
2017-09-14 07:04:55 GMT 53.42292 -6.24304 0 315 5 0
2017-09-14 07:03:54 GMT 53.42263 -6.24256 0 315 0 0
2017-09-14 07:03:19 GMT 53.42263 -6.24256 0 315 0 0
2017-09-14 07:03:09 GMT 53.42262 -6.24254 0 315 0 0
2017-09-14 07:03:01 GMT 53.42260 -6.24249 0 315 0 0
2017-09-14 07:02:50 GMT 53.42257 -6.24246 0 315 1 0
2017-09-14 07:02:39 GMT 53.42250 -6.24233 0 317 4 0
2017-09-14 07:02:16 GMT 53.42207 -6.24187 0 28 7 0
2017-09-14 07:02:09 GMT 53.42188 -6.24207 0 45 10 0
2017-09-14 07:01:54 GMT 53.42159 -6.24306 0 92 15 0
2017-09-14 07:01:48 GMT 53.42162 -6.24373 0 92 14 0
2017-09-14 07:01:37 GMT 53.42168 -6.24486 0 95 16 0
2017-09-14 07:01:27 GMT 53.42175 -6.24610 0 95 15 0
2017-09-14 07:01:15 GMT 53.42179 -6.24686 0 106 5 0
2017-09-14 07:01:05 GMT 53.42195 -6.24736 0 146 12 0
2017-09-14 07:00:57 GMT 53.42229 -6.24765 0 160 10 0
2017-09-14 07:00:45 GMT 53.42262 -6.24789 0 157 4 0
2017-09-14 07:00:36 GMT 53.42278 -6.24801 0 157 8 0
2017-09-14 07:00:26 GMT 53.42313 -6.24826 0 157 9 0
2017-09-14 07:00:15 GMT 53.42366 -6.24867 0 157 18 0
2017-09-14 07:00:05 GMT 53.42436 -6.24916 0 157 16 0
2017-09-14 06:59:54 GMT 53.42507 -6.24967 0 157 19 0
2017-09-14 06:59:44 GMT 53.42578 -6.25019 0 157 17 0
2017-09-14 06:59:34 GMT 53.42638 -6.25061 0 157 15 0
2017-09-14 06:59:24 GMT 53.42690 -6.25098 0 154 12 0
2017-09-14 06:59:14 GMT 53.42717 -6.25171 0 78 13 0
2017-09-14 06:59:03 GMT 53.42681 -6.25257 0 45 18 0
2017-09-14 06:58:53 GMT 53.42616 -6.25367 0 47 22 0
2017-09-14 06:58:43 GMT 53.42543 -6.25493 0 47 23 0
2017-09-14 06:58:32 GMT 53.42476 -6.25609 0 45 21 0
2017-09-14 06:58:20 GMT 53.42403 -6.25732 0 45 21 0
2017-09-14 06:58:10 GMT 53.42332 -6.25854 0 42 24 0
2017-09-14 06:58:00 GMT 53.42269 -6.25992 0 73 24 0
2017-09-14 06:57:49 GMT 53.42262 -6.26166 0 95 25 0
2017-09-14 06:57:39 GMT 53.42271 -6.26374 0 95 29 0
2017-09-14 06:57:29 GMT 53.42284 -6.26594 0 95 33 0
2017-09-14 06:57:15 GMT 53.42302 -6.26911 0 95 31 0
2017-09-14 06:57:08 GMT 53.42309 -6.27070 0 95 29 0
2017-09-14 06:56:57 GMT 53.42323 -6.27301 0 95 28 0
2017-09-14 06:56:47 GMT 53.42334 -6.27495 0 95 28 0
2017-09-14 06:56:36 GMT 53.42347 -6.27713 0 95 29 0
2017-09-14 06:56:26 GMT 53.42359 -6.27935 0 95 28 0
2017-09-14 06:56:16 GMT 53.42370 -6.28141 0 95 24 0
2017-09-14 06:56:06 GMT 53.42369 -6.28277 0 67 15 0
2017-09-14 06:55:55 GMT 53.42313 -6.28322 0 340 18 0
2017-09-14 06:55:40 GMT 53.42211 -6.28132 0 289 32 0
2017-09-14 06:55:35 GMT 53.42192 -6.28008 0 275 34 0
2017-09-14 06:55:21 GMT 53.42172 -6.27653 0 275 37 0
2017-09-14 06:55:14 GMT 53.42160 -6.27442 0 275 39 0
2017-09-14 06:55:01 GMT 53.42144 -6.27148 0 275 26 0
2017-09-14 06:54:53 GMT 53.42135 -6.26996 0 275 28 0
2017-09-14 06:54:41 GMT 53.42117 -6.26679 0 275 65 0
2017-09-14 06:54:33 GMT 53.42087 -6.26150 0 272 100 0
2017-09-14 06:54:22 GMT 53.42038 -6.25271 300 276 117 -576
2017-09-14 06:54:12 GMT 53.41986 -6.24322 450 276 118 -576
2017-09-14 06:54:02 GMT 53.41934 -6.23410 550 276 118 -640
2017-09-14 06:53:51 GMT 53.41888 -6.22480 650 276 110 -832
2017-09-14 06:53:41 GMT 53.41841 -6.21608 750 276 110 -512
2017-09-14 06:53:30 GMT 53.41790 -6.20679 875 276 112 -704
2017-09-14 06:53:20 GMT 53.41736 -6.19833 975 276 110 -960
2017-09-14 06:53:10 GMT 53.41683 -6.18958 1,100 276 109 -320
2017-09-14 06:52:59 GMT 53.41631 -6.18059 1,200 276 109 -512
2017-09-14 06:52:49 GMT 53.41581 -6.17206 1,300 278 109 -576
2017-09-14 06:52:39 GMT 53.41520 -6.16333 1,400 275 110 -576
2017-09-14 06:52:28 GMT 53.41475 -6.15415 1,500 276 116 -320
2017-09-14 06:52:18 GMT 53.41404 -6.14467 1,575 279 123 -512
2017-09-14 06:52:08 GMT 53.41325 -6.13490 1,700 278 127 -704
2017-09-14 06:51:58 GMT 53.41241 -6.12464 1,825 278 132 -832
2017-09-14 06:51:48 GMT 53.41159 -6.11452 1,975 278 136 -512
2017-09-14 06:51:37 GMT 53.41067 -6.10385 2,000 279 134 0
2017-09-14 06:51:27 GMT 53.40976 -6.09333 2,000 279 131 -256
2017-09-14 06:51:23 GMT 53.40943 -6.08901 2,025 278 129 -128
2017-09-14 06:51:16 GMT 53.40906 -6.08271 2,050 275 128 -448
2017-09-14 06:51:09 GMT 53.40889 -6.07583 2,075 273 130 -384
2017-09-14 06:51:06 GMT 53.40892 -6.07221 2,075 268 142 384
2017-09-14 06:51:03 GMT 53.40903 -6.06822 2,075 268 142 384
2017-09-14 06:50:56 GMT 53.40966 -6.06041 2,100 258 156 0
2017-09-14 06:50:53 GMT 53.41008 -6.05743 2,075 257 161 192
2017-09-14 06:50:44 GMT 53.41219 -6.04625 2,100 250 178 -320
2017-09-14 06:50:34 GMT 53.41621 -6.03094 2,200 246 185 -384
2017-09-14 06:50:25 GMT 53.41893 -6.02091 2,250 247 188 -448
2017-09-14 06:50:21 GMT 53.42006 -6.01635 2,275 247 188 -768
2017-09-14 06:50:13 GMT 53.42279 -6.00524 2,375 248 188 -576
2017-09-14 06:50:03 GMT 53.42633 -5.99132 2,500 247 189 -1152
2017-09-14 06:49:54 GMT 53.42945 -5.97963 2,650 246 187 -1216
2017-09-14 06:49:52 GMT 53.43022 -5.97688 2,700 246 187 -1152
2017-09-14 06:49:43 GMT 53.43359 -5.96469 2,875 246 185 -1280
2017-09-14 06:49:41 GMT 53.43411 -5.96275 2,925 246 185 -1216
2017-09-14 06:49:34 GMT 53.43691 -5.95263 3,050 245 188 -960
2017-09-14 06:49:29 GMT 53.43842 -5.94729 3,100 245 188 -960
2017-09-14 06:49:23 GMT 53.44085 -5.93900 3,225 244 190 -1344
2017-09-14 06:49:19 GMT 53.44267 -5.93293 3,325 244 189 -1344
2017-09-14 06:49:13 GMT 53.44482 -5.92563 3,450 244 188 -1216
2017-09-14 06:49:09 GMT 53.44639 -5.92026 3,525 244 187 -1024
2017-09-14 06:49:03 GMT 53.44872 -5.91218 3,625 245 188 -1088
2017-09-14 06:48:59 GMT 53.45049 -5.90596 3,700 245 188 -1152
2017-09-14 06:48:52 GMT 53.45274 -5.89793 3,800 245 188 -640
2017-09-14 06:48:42 GMT 53.45645 -5.88459 3,925 246 191 -640
2017-09-14 06:48:40 GMT 53.45724 -5.88173 3,950 245 193 -512
2017-09-14 06:48:30 GMT 53.46124 -5.86743 4,050 246 197 -512
2017-09-14 06:48:21 GMT 53.46451 -5.85556 4,125 245 201 -512
2017-09-14 06:48:17 GMT 53.46597 -5.85046 4,150 242 209 -512
2017-09-14 06:48:10 GMT 53.46909 -5.84072 4,200 241 210 -448
2017-09-14 06:48:07 GMT 53.47074 -5.83584 4,225 240 212 -320
2017-09-14 06:48:00 GMT 53.47430 -5.82652 4,275 236 221 -448
2017-09-14 06:47:50 GMT 53.48075 -5.81169 4,375 232 230 -640
2017-09-14 06:47:46 GMT 53.48331 -5.80635 4,425 230 234 -512
2017-09-14 06:47:39 GMT 53.48813 -5.79733 4,475 227 240 -448
2017-09-14 06:47:29 GMT 53.49609 -5.78344 4,550 227 248 -128
2017-09-14 06:47:21 GMT 53.50250 -5.77214 4,575 227 252 -128
2017-09-14 06:47:19 GMT 53.50433 -5.76900 4,625 227 258 -960
2017-09-14 06:47:16 GMT 53.50731 -5.76382 4,675 227 270 -1216
2017-09-14 06:47:09 GMT 53.51289 -5.75409 4,775 227 267 -960
2017-09-14 06:47:05 GMT 53.51578 -5.74891 4,850 227 270 -1216
2017-09-14 06:46:58 GMT 53.52190 -5.73818 5,000 227 277 -1664
2017-09-14 06:46:48 GMT 53.53098 -5.72218 5,350 227 280 -2560
2017-09-14 06:46:43 GMT 53.53592 -5.71352 5,600 227 281 -2432
2017-09-14 06:46:38 GMT 53.54038 -5.70562 5,800 227 281 -2496
2017-09-14 06:46:34 GMT 53.54401 -5.69908 5,975 227 282 -2432
2017-09-14 06:46:27 GMT 53.54984 -5.68872 6,250 227 282 -2432
2017-09-14 06:46:24 GMT 53.55281 -5.68346 6,375 227 282 -2432
2017-09-14 06:46:17 GMT 53.55909 -5.67226 6,675 227 283 -2432
2017-09-14 06:46:13 GMT 53.56215 -5.66683 6,825 227 283 -2496
2017-09-14 06:46:07 GMT 53.56817 -5.65610 7,100 227 284 -2432
2017-09-14 06:46:03 GMT 53.57180 -5.64972 7,275 227 284 -2432
2017-09-14 06:45:58 GMT 53.57674 -5.64108 7,475 226 286 -2368
2017-09-14 06:45:56 GMT 53.57799 -5.63889 7,550 227 285 -2304
2017-09-14 06:45:52 GMT 53.58121 -5.63324 7,675 226 287 -1984
2017-09-14 06:45:45 GMT 53.58758 -5.62217 7,900 227 287 -1920
2017-09-14 06:45:43 GMT 53.59071 -5.61676 8,000 227 287 -1920
2017-09-14 06:45:35 GMT 53.59703 -5.60650 8,250 220 287 -2688
2017-09-14 06:45:32 GMT 53.60097 -5.60122 8,425 216 289 -2752
2017-09-14 06:45:27 GMT 53.60765 -5.59369 8,700 207 292 -2752
2017-09-14 06:45:25 GMT 53.60835 -5.59301 8,725 209 292 -2752
2017-09-14 06:45:20 GMT 53.61528 -5.58695 9,000 204 293 -2752
2017-09-14 06:45:14 GMT 53.62208 -5.58251 9,250 200 293 -2752
2017-09-14 06:45:10 GMT 53.62651 -5.58019 9,400 196 294 -2688
2017-09-14 06:45:05 GMT 53.63383 -5.57752 9,650 190 295 -2624
2017-09-14 06:45:03 GMT 53.63571 -5.57697 9,700 189 295 -2560
2017-09-14 06:45:00 GMT 53.64010 -5.57613 9,850 186 297 -2432
2017-09-14 06:44:55 GMT 53.64610 -5.57564 10,025 180 298 -2304
2017-09-14 06:44:53 GMT 53.64982 -5.57572 10,125 178 299 -2304
2017-09-14 06:44:51 GMT 53.65356 -5.57611 10,225 174 301 -1984
2017-09-14 06:44:48 GMT 53.65759 -5.57674 10,325 172 303 -1600
2017-09-14 06:44:44 GMT 53.66286 -5.57798 10,425 171 306 -1216
2017-09-14 06:44:39 GMT 53.66905 -5.57944 10,475 171 312 -384
2017-09-14 06:44:37 GMT 53.67278 -5.58033 10,500 171 313 -320
2017-09-14 06:44:33 GMT 53.67755 -5.58145 10,525 171 322 -192
2017-09-14 06:44:29 GMT 53.68423 -5.58307 10,525 171 329 -256
2017-09-14 06:44:23 GMT 53.69340 -5.58517 10,550 172 340 -256
2017-09-14 06:44:19 GMT 53.70001 -5.58671 10,575 172 348 -256
2017-09-14 06:44:13 GMT 53.71002 -5.58905 10,600 172 360 -128
2017-09-14 06:44:07 GMT 53.71925 -5.59118 10,600 172 376 -896
2017-09-14 06:44:05 GMT 53.72440 -5.59244 10,625 171 379 -320
2017-09-14 06:44:02 GMT 53.72736 -5.59314 10,650 172 382 -192
2017-09-14 06:43:59 GMT 53.73492 -5.59487 10,650 171 387 -192
2017-09-14 06:43:54 GMT 53.74274 -5.59681 10,675 171 392 0
2017-09-14 06:43:52 GMT 53.74600 -5.59753 10,675 171 394 -512
2017-09-14 06:43:47 GMT 53.75542 -5.59981 10,775 171 399 -2176
2017-09-14 06:43:43 GMT 53.76311 -5.60169 10,900 171 403 -832
2017-09-14 06:43:41 GMT 53.76514 -5.60222 10,925 171 402 -1024
2017-09-14 06:43:37 GMT 53.77267 -5.60405 11,000 171 403 -448
2017-09-14 06:43:31 GMT 53.78427 -5.60699 11,025 171 403 -256
2017-09-14 06:43:27 GMT 53.79350 -5.60930 11,050 171 402 -384
2017-09-14 06:43:21 GMT 53.80270 -5.61167 11,075 171 402 -576
2017-09-14 06:43:17 GMT 53.81058 -5.61362 11,125 171 402 -640
2017-09-14 06:43:10 GMT 53.82275 -5.61629 11,200 173 401 -960
2017-09-14 06:43:06 GMT 53.82993 -5.61741 11,275 175 401 -1280
2017-09-14 06:43:01 GMT 53.84029 -5.61802 11,425 182 400 -1792
2017-09-14 06:42:57 GMT 53.84857 -5.61762 11,575 184 399 -2368
2017-09-14 06:42:56 GMT 53.85059 -5.61739 11,625 185 399 -2496
2017-09-14 06:42:52 GMT 53.85572 -5.61660 11,725 190 398 -2752
2017-09-14 06:42:50 GMT 53.86034 -5.61566 11,850 188 398 -2816
2017-09-14 06:42:46 GMT 53.86778 -5.61377 12,050 191 399 -2752
2017-09-14 06:42:40 GMT 53.87833 -5.61056 12,325 191 399 -2816
2017-09-14 06:42:38 GMT 53.88105 -5.60965 12,400 191 399 -2880
2017-09-14 06:42:36 GMT 53.88647 -5.60797 12,550 191 399 -2944
2017-09-14 06:42:33 GMT 53.89138 -5.60642 12,675 191 401 -2880
2017-09-14 06:42:31 GMT 53.89412 -5.60554 12,750 191 401 -2880
2017-09-14 06:42:29 GMT 53.89795 -5.60432 12,850 191 401 -2816
2017-09-14 06:42:25 GMT 53.90595 -5.60173 13,050 191 402 -2816
2017-09-14 06:42:19 GMT 53.91540 -5.59866 13,300 191 403 -2560
2017-09-14 06:42:16 GMT 53.92108 -5.59681 13,425 191 410 -768
2017-09-14 06:42:14 GMT 53.92479 -5.59557 13,500 191 406 -1856
2017-09-14 06:42:12 GMT 53.92993 -5.59390 13,575 191 409 -768
2017-09-14 06:42:08 GMT 53.93550 -5.59212 13,625 191 410 -768
2017-09-14 06:42:05 GMT 53.94466 -5.58922 13,700 191 411 -768
2017-09-14 06:41:58 GMT 53.95436 -5.58615 13,750 191 412 -640
2017-09-14 06:41:54 GMT 53.96265 -5.58372 13,800 190 414 -704
2017-09-14 06:41:52 GMT 53.96718 -5.58247 13,825 189 415 -576
2017-09-14 06:41:49 GMT 53.97346 -5.58097 13,875 188 416 -640
2017-09-14 06:41:47 GMT 53.97839 -5.58000 13,900 184 417 -768
2017-09-14 06:41:44 GMT 53.98260 -5.57933 13,925 184 417 -768
2017-09-14 06:41:42 GMT 53.98514 -5.57895 13,925 183 417 -768
2017-09-14 06:41:40 GMT 53.98896 -5.57863 13,975 182 417 -832
2017-09-14 06:41:37 GMT 53.99492 -5.57839 14,000 180 417 -640
2017-09-14 06:41:35 GMT 54.00013 -5.57847 14,025 178 417 -448
2017-09-14 06:41:33 GMT 54.00437 -5.57871 14,050 176 416 -256
2017-09-14 06:41:30 GMT 54.01263 -5.57964 14,050 174 417 -320
2017-09-14 06:41:27 GMT 54.01360 -5.57980 14,075 174 418 -256
2017-09-14 06:41:25 GMT 54.01973 -5.58106 14,075 171 419 -448
2017-09-14 06:41:22 GMT 54.02376 -5.58200 14,100 171 420 -512
2017-09-14 06:41:19 GMT 54.02876 -5.58324 14,125 171 420 -512
2017-09-14 06:41:16 GMT 54.03584 -5.58509 14,150 171 420 -576
2017-09-14 06:41:12 GMT 54.04370 -5.58719 14,200 171 421 -896
2017-09-14 06:41:10 GMT 54.04892 -5.58857 14,250 171 421 -1088
2017-09-14 06:41:05 GMT 54.05734 -5.59083 14,325 170 421 -3328
2017-09-14 06:41:03 GMT 54.06041 -5.59164 14,350 171 419 -1408
2017-09-14 06:41:01 GMT 54.06541 -5.59290 14,425 171 420 -1984
2017-09-14 06:40:59 GMT 54.06921 -5.59392 14,475 171 420 -2048
2017-09-14 06:40:57 GMT 54.07117 -5.59446 14,500 171 420 -1728
2017-09-14 06:40:55 GMT 54.07615 -5.59576 14,600 171 420 -2048
2017-09-14 06:40:52 GMT 54.08267 -5.59745 14,725 171 420 -2432
2017-09-14 06:40:50 GMT 54.08670 -5.59848 14,800 171 421 -3008
2017-09-14 06:40:48 GMT 54.08844 -5.59895 14,850 171 421 -2752
2017-09-14 06:40:44 GMT 54.09654 -5.60101 15,050 171 421 -3264
2017-09-14 06:40:42 GMT 54.10213 -5.60248 15,200 171 422 -3328
2017-09-14 06:40:38 GMT 54.10808 -5.60405 15,375 171 422 -3328
2017-09-14 06:40:34 GMT 54.11655 -5.60640 15,625 170 421 -3328
2017-09-14 06:40:31 GMT 54.12172 -5.60789 15,775 170 421 -3136
2017-09-14 06:40:29 GMT 54.12694 -5.60946 15,925 167 425 -1664
2017-09-14 06:40:24 GMT 54.13555 -5.61248 16,100 167 425 -1664
2017-09-14 06:40:22 GMT 54.13838 -5.61354 16,150 165 427 -1088
2017-09-14 06:40:20 GMT 54.14528 -5.61652 16,225 165 427 -1024
2017-09-14 06:40:18 GMT 54.14737 -5.61757 16,250 161 429 -1216
2017-09-14 06:40:14 GMT 54.15491 -5.62155 16,325 161 428 -1280
2017-09-14 06:40:12 GMT 54.15757 -5.62306 16,350 160 429 -1344
2017-09-14 06:40:10 GMT 54.16204 -5.62589 16,425 157 430 -1600
2017-09-14 06:40:07 GMT 54.16791 -5.63002 16,500 156 431 -1728
2017-09-14 06:40:03 GMT 54.17535 -5.63574 16,650 154 432 -2304
2017-09-14 06:40:01 GMT 54.17926 -5.63912 16,750 151 430 -3328
2017-09-14 06:39:58 GMT 54.18452 -5.64407 16,925 149 430 -3200
2017-09-14 06:39:54 GMT 54.19034 -5.64996 17,100 147 434 -3072
2017-09-14 06:39:52 GMT 54.19492 -5.65490 17,200 144 441 -2688
2017-09-14 06:39:49 GMT 54.20096 -5.66176 17,400 145 439 -2752
2017-09-14 06:39:47 GMT 54.20197 -5.66290 17,450 144 443 -2496
2017-09-14 06:39:42 GMT 54.21097 -5.67379 17,650 144 449 -1536
2017-09-14 06:39:40 GMT 54.21464 -5.67832 17,700 144 451 -1024
2017-09-14 06:39:38 GMT 54.21739 -5.68163 17,725 144 452 -640
2017-09-14 06:39:35 GMT 54.22316 -5.68872 17,775 144 455 -832
2017-09-14 06:39:33 GMT 54.22554 -5.69162 17,775 144 455 -768
2017-09-14 06:39:30 GMT 54.23136 -5.69875 17,825 144 455 -896
2017-09-14 06:39:27 GMT 54.23698 -5.70567 17,875 144 456 -832
2017-09-14 06:39:23 GMT 54.24318 -5.71321 17,925 144 457 -704
2017-09-14 06:39:20 GMT 54.24866 -5.71995 17,975 144 458 -448
2017-09-14 06:39:18 GMT 54.25172 -5.72372 18,000 144 458 -448
2017-09-14 06:39:15 GMT 54.25603 -5.72906 18,000 144 458 -128
2017-09-14 06:39:11 GMT 54.26358 -5.73832 18,025 144 458 0
2017-09-14 06:39:08 GMT 54.26788 -5.74365 18,025 144 458 -64
2017-09-14 06:39:06 GMT 54.27339 -5.75037 18,025 144 457 -64
2017-09-14 06:39:04 GMT 54.27612 -5.75378 18,025 144 457 -256
2017-09-14 06:39:00 GMT 54.28450 -5.76411 18,050 144 456 -384
2017-09-14 06:38:57 GMT 54.28703 -5.76724 18,075 144 454 -512
2017-09-14 06:38:53 GMT 54.29350 -5.77523 18,100 144 454 -576
2017-09-14 06:38:51 GMT 54.29842 -5.78131 18,125 144 451 -512
2017-09-14 06:38:49 GMT 54.30179 -5.78547 18,125 144 451 -576
2017-09-14 06:38:47 GMT 54.30435 -5.78863 18,150 144 451 -640
2017-09-14 06:38:45 GMT 54.30821 -5.79343 18,175 144 451 -768
2017-09-14 06:38:40 GMT 54.31599 -5.80303 18,225 144 453 -1024
2017-09-14 06:38:37 GMT 54.32144 -5.80975 18,275 144 454 -1088
2017-09-14 06:38:35 GMT 54.32586 -5.81526 18,325 144 455 -1280
2017-09-14 06:38:32 GMT 54.33046 -5.82090 18,400 144 456 -1664
2017-09-14 06:38:29 GMT 54.33559 -5.82725 18,475 144 457 -1856
2017-09-14 06:38:27 GMT 54.33884 -5.83124 18,525 144 457 -1984
2017-09-14 06:38:24 GMT 54.34415 -5.83786 18,625 144 458 -2240
2017-09-14 06:38:21 GMT 54.34792 -5.84248 18,725 144 459 -2432
2017-09-14 06:38:19 GMT 54.35156 -5.84691 18,800 144 459 -2752
2017-09-14 06:38:17 GMT 54.35655 -5.85305 18,950 144 459 -3008
2017-09-14 06:38:12 GMT 54.36479 -5.86331 19,200 144 460 -3328
2017-09-14 06:38:10 GMT 54.36859 -5.86803 19,325 144 461 -3328
2017-09-14 06:38:07 GMT 54.37413 -5.87486 19,500 144 461 -3392
2017-09-14 06:38:05 GMT 54.37585 -5.87694 19,550 144 461 -3328
2017-09-14 06:38:03 GMT 54.38000 -5.88210 19,700 144 461 -3392
2017-09-14 06:38:01 GMT 54.38553 -5.88891 19,875 144 462 -3392
2017-09-14 06:37:59 GMT 54.38744 -5.89125 19,950 144 462 -3456
2017-09-14 06:37:57 GMT 54.39038 -5.89491 20,050 144 462 -3520
2017-09-14 06:37:55 GMT 54.39294 -5.89812 20,125 144 462 -3520
2017-09-14 06:37:53 GMT 54.39679 -5.90281 20,275 144 462 -3648
2017-09-14 06:37:50 GMT 54.40458 -5.91248 20,550 144 462 -3712
2017-09-14 06:37:50 GMT 54.40283 -5.91032 20,475 144 462 -3712
2017-09-14 06:37:48 GMT 54.40562 -5.91380 20,575 144 462 -3840
2017-09-14 06:37:46 GMT 54.41061 -5.91993 20,775 144 462 -3840
2017-09-14 06:37:43 GMT 54.41684 -5.92769 20,900 144 462 -3712
2017-09-14 06:37:41 GMT 54.41859 -5.92979 21,050 144 461 -3520
2017-09-14 06:37:39 GMT 54.42206 -5.93407 21,175 144 462 -3456
2017-09-14 06:37:37 GMT 54.42394 -5.93645 21,250 144 462 -3456
2017-09-14 06:37:35 GMT 54.42755 -5.94086 21,375 144 462 -3200
2017-09-14 06:37:33 GMT 54.43344 -5.94818 21,550 144 462 -2624
2017-09-14 06:37:33 GMT 54.43259 -5.94708 21,525 144 462 -2880
2017-09-14 06:37:30 GMT 54.43762 -5.95330 21,650 144 462 -2624
2017-09-14 06:37:28 GMT 54.44092 -5.95734 21,750 144 462 -2944
2017-09-14 06:37:26 GMT 54.44475 -5.96208 21,850 144 462 -3008
2017-09-14 06:37:24 GMT 54.44666 -5.96441 21,900 144 463 -2944
2017-09-14 06:37:22 GMT 54.45206 -5.97099 22,050 144 465 -2560
2017-09-14 06:37:20 GMT 54.45467 -5.97423 22,125 144 464 -2624
2017-09-14 06:37:17 GMT 54.45955 -5.98028 22,250 144 465 -2432
2017-09-14 06:37:15 GMT 54.46495 -5.98688 22,375 144 467 -2176
2017-09-14 06:37:12 GMT 54.46831 -5.99096 22,450 144 468 -2112
2017-09-14 06:37:10 GMT 54.47168 -5.99506 22,525 144 470 -2176
2017-09-14 06:37:06 GMT 54.47892 -6.00394 22,675 144 472 -2560
2017-09-14 06:37:04 GMT 54.48246 -6.00827 22,750 144 474 -2752
2017-09-14 06:37:02 GMT 54.48763 -6.01460 22,900 144 474 -2752
2017-09-14 06:36:59 GMT 54.49121 -6.01893 22,975 144 474 -2752
2017-09-14 06:36:57 GMT 54.49405 -6.02242 23,050 144 475 -2880
2017-09-14 06:36:55 GMT 54.49871 -6.02808 23,200 144 476 -3008
2017-09-14 06:36:53 GMT 54.50229 -6.03249 23,300 144 476 -3200
2017-09-14 06:36:51 GMT 54.50537 -6.03618 23,400 144 476 -3584
2017-09-14 06:36:49 GMT 54.50983 -6.04165 23,550 144 476 -3904
2017-09-14 06:36:46 GMT 54.51453 -6.04733 23,725 144 475 -4416
2017-09-14 06:36:44 GMT 54.51881 -6.05255 23,900 144 474 -4672
2017-09-14 06:36:41 GMT 54.52310 -6.05771 24,100 144 473 -4800
2017-09-14 06:36:39 GMT 54.52918 -6.06510 24,375 144 471 -4096
2017-09-14 06:36:35 GMT 54.53543 -6.07261 24,625 144 471 -4288
2017-09-14 06:36:33 GMT 54.53792 -6.07560 24,725 144 471 -3648
2017-09-14 06:36:31 GMT 54.54130 -6.07968 24,850 144 471 -3328
2017-09-14 06:36:29 GMT 54.54489 -6.08401 24,975 144 472 -2944
2017-09-14 06:36:27 GMT 54.54935 -6.08934 25,075 144 472 -2432
2017-09-14 06:36:25 GMT 54.55364 -6.09458 25,175 145 474 -1856
2017-09-14 06:36:23 GMT 54.55545 -6.09668 25,200 145 474 -1664
2017-09-14 06:36:21 GMT 54.55975 -6.10194 25,275 145 478 -1344
2017-09-14 06:36:19 GMT 54.56248 -6.10515 25,300 145 479 -1344
2017-09-14 06:36:16 GMT 54.56863 -6.11260 25,400 144 481 -1664
2017-09-14 06:36:14 GMT 54.57170 -6.11632 25,425 144 482 -1600
2017-09-14 06:36:12 GMT 54.57444 -6.11963 25,475 144 482 -1600
2017-09-14 06:36:09 GMT 54.58026 -6.12671 25,550 144 486 -1280
2017-09-14 06:36:07 GMT 54.58653 -6.13425 25,625 144 488 -1344
2017-09-14 06:36:04 GMT 54.59061 -6.13918 25,675 144 491 -1344
2017-09-14 06:36:01 GMT 54.59819 -6.14843 25,775 144 494 -1536
2017-09-14 06:35:59 GMT 54.59967 -6.15024 25,800 144 494 -1600
2017-09-14 06:35:56 GMT 54.60526 -6.15709 25,875 144 495 -1728
2017-09-14 06:35:54 GMT 54.60931 -6.16208 25,950 144 495 -1280
2017-09-14 06:35:52 GMT 54.61285 -6.16648 26,000 144 495 -1280
2017-09-14 06:35:50 GMT 54.61620 -6.17060 26,025 144 495 -1024
2017-09-14 06:35:48 GMT 54.61974 -6.17498 26,075 144 495 -640
2017-09-14 06:35:46 GMT 54.62416 -6.18056 26,100 143 495 -384
2017-09-14 06:35:44 GMT 54.62860 -6.18619 26,125 143 496 -448
2017-09-14 06:35:42 GMT 54.63171 -6.19015 26,125 143 495 -512
2017-09-14 06:35:40 GMT 54.63538 -6.19484 26,150 142 494 -704
2017-09-14 06:35:38 GMT 54.63831 -6.19863 26,175 142 494 -704
2017-09-14 06:35:36 GMT 54.64265 -6.20437 26,200 142 493 -1088
2017-09-14 06:35:34 GMT 54.64677 -6.20986 26,250 141 492 -1024
2017-09-14 06:35:33 GMT 54.64838 -6.21212 26,250 141 492 -1024
2017-09-14 06:35:29 GMT 54.65387 -6.21964 26,325 141 490 -1152
2017-09-14 06:35:26 GMT 54.66075 -6.22925 26,400 141 487 -1856
2017-09-14 06:35:23 GMT 54.66462 -6.23458 26,450 141 488 -1536
2017-09-14 06:35:21 GMT 54.66989 -6.24193 26,550 141 487 -2112
2017-09-14 06:35:18 GMT 54.67584 -6.25022 26,650 141 487 -2176
2017-09-14 06:35:14 GMT 54.68202 -6.25873 26,800 141 489 -2560
2017-09-14 06:35:12 GMT 54.68550 -6.26366 26,875 141 489 -2688
2017-09-14 06:35:09 GMT 54.69044 -6.27045 27,000 141 489 -3136
2017-09-14 06:35:07 GMT 54.69376 -6.27511 27,100 141 489 -3200
2017-09-14 06:35:05 GMT 54.69713 -6.27974 27,225 141 489 -3328
2017-09-14 06:35:03 GMT 54.70152 -6.28588 27,350 141 489 -3264
2017-09-14 06:34:59 GMT 54.70821 -6.29517 27,575 141 489 -3392
2017-09-14 06:34:57 GMT 54.71066 -6.29858 27,650 141 490 -3392
2017-09-14 06:34:54 GMT 54.71787 -6.30866 27,900 141 490 -3392
2017-09-14 06:34:52 GMT 54.72015 -6.31181 27,950 141 490 -3264
2017-09-14 06:34:48 GMT 54.72881 -6.32384 28,250 141 490 -3456
2017-09-14 06:34:45 GMT 54.73407 -6.33120 28,425 141 490 -3392
2017-09-14 06:34:42 GMT 54.73778 -6.33636 28,550 141 490 -3328
2017-09-14 06:34:39 GMT 54.74394 -6.34494 28,750 141 492 -3008
2017-09-14 06:34:37 GMT 54.74574 -6.34743 28,800 141 492 -3008
2017-09-14 06:34:34 GMT 54.75209 -6.35626 29,000 141 492 -3136
2017-09-14 06:34:32 GMT 54.75563 -6.36125 29,100 141 494 -3136
2017-09-14 06:34:29 GMT 54.76025 -6.36763 29,250 141 495 -3264
2017-09-14 06:34:28 GMT 54.76131 -6.36916 29,275 141 494 -3200
2017-09-14 06:34:26 GMT 54.76772 -6.37813 29,475 141 496 -3264
2017-09-14 06:34:24 GMT 54.76968 -6.38080 29,525 141 497 -3264
2017-09-14 06:34:22 GMT 54.77238 -6.38455 29,625 141 497 -3264
2017-09-14 06:34:20 GMT 54.77541 -6.38879 29,725 141 499 -3328
2017-09-14 06:34:18 GMT 54.78095 -6.39663 29,900 141 500 -3328
2017-09-14 06:34:15 GMT 54.78456 -6.40164 30,000 141 500 -3328
2017-09-14 06:34:13 GMT 54.78975 -6.40894 30,175 140 502 -3264
2017-09-14 06:34:10 GMT 54.79353 -6.41424 30,300 140 502 -3392
2017-09-14 06:34:08 GMT 54.79747 -6.41981 30,425 140 503 -3456
2017-09-14 06:34:06 GMT 54.80199 -6.42617 30,575 140 504 -3520
2017-09-14 06:34:04 GMT 54.80704 -6.43330 30,750 140 506 -3392
2017-09-14 06:34:02 GMT 54.80868 -6.43557 30,800 140 506 -3392
2017-09-14 06:34:00 GMT 54.81157 -6.43968 30,875 140 506 -3264
2017-09-14 06:33:58 GMT 54.81647 -6.44656 31,025 140 507 -3328
2017-09-14 06:33:56 GMT 54.82118 -6.45326 31,175 140 508 -3520
2017-09-14 06:33:53 GMT 54.82592 -6.45988 31,350 140 508 -3520
2017-09-14 06:33:53 GMT 54.82484 -6.45834 31,300 140 508 -3584
2017-09-14 06:33:51 GMT 54.82992 -6.46554 31,475 140 508 -3520
2017-09-14 06:33:49 GMT 54.83155 -6.46787 31,525 140 508 -3520
2017-09-14 06:33:47 GMT 54.83518 -6.47303 31,650 140 509 -3328
2017-09-14 06:33:45 GMT 54.83919 -6.47869 31,775 140 509 -3264
2017-09-14 06:33:43 GMT 54.84412 -6.48560 31,925 140 510 -3200
2017-09-14 06:33:40 GMT 54.84924 -6.49284 32,075 140 510 -3136
2017-09-14 06:33:38 GMT 54.85381 -6.49925 32,225 140 510 -3200
2017-09-14 06:33:36 GMT 54.85730 -6.50415 32,325 140 510 -3328
2017-09-14 06:33:34 GMT 54.86186 -6.51056 32,475 140 511 -3328
2017-09-14 06:33:31 GMT 54.86642 -6.51697 32,600 140 511 -3328
2017-09-14 06:33:29 GMT 54.86824 -6.51958 32,675 140 511 -3392
2017-09-14 06:33:25 GMT 54.87630 -6.53089 32,925 140 510 -3648
2017-09-14 06:33:22 GMT 54.88362 -6.54123 33,150 140 509 -3264
2017-09-14 06:33:20 GMT 54.88527 -6.54349 33,200 140 509 -3328
2017-09-14 06:33:20 GMT 54.88618 -6.54478 33,225 140 509 -3328
2017-09-14 06:33:18 GMT 54.88872 -6.54843 33,325 140 509 -3200
2017-09-14 06:33:15 GMT 54.89493 -6.55714 33,475 140 508 -3072
2017-09-14 06:33:13 GMT 54.89840 -6.56200 33,575 140 508 -3072
2017-09-14 06:33:11 GMT 54.90111 -6.56587 33,650 140 508 -3072
2017-09-14 06:33:09 GMT 54.90566 -6.57232 33,775 140 508 -3072
2017-09-14 06:33:07 GMT 54.90823 -6.57590 33,850 140 508 -3072
2017-09-14 06:33:05 GMT 54.91423 -6.58439 34,000 140 508 -2944
2017-09-14 06:33:01 GMT 54.92023 -6.59288 34,175 140 508 -3136
2017-09-14 06:32:59 GMT 54.92312 -6.59696 34,250 140 508 -3136
2017-09-14 06:32:57 GMT 54.92766 -6.60343 34,400 140 507 -3200
2017-09-14 06:32:55 GMT 54.93022 -6.60698 34,450 140 507 -3264
2017-09-14 06:32:53 GMT 54.93617 -6.61547 34,650 140 506 -3200
2017-09-14 06:32:50 GMT 54.94235 -6.62419 34,825 140 506 -2944
2017-09-14 06:32:48 GMT 54.94345 -6.62573 34,850 140 506 -2944
2017-09-14 06:32:45 GMT 54.94886 -6.63341 35,000 140 506 -2880
2017-09-14 06:32:43 GMT 54.95393 -6.64059 35,125 140 506 -2944
2017-09-14 06:32:41 GMT 54.95755 -6.64576 35,225 140 506 -3008
2017-09-14 06:32:39 GMT 54.95920 -6.64802 35,275 140 504 -2944
2017-09-14 06:32:37 GMT 54.96334 -6.65397 35,400 140 503 -3200
2017-09-14 06:32:35 GMT 54.96693 -6.65905 35,500 140 503 -3136
2017-09-14 06:32:33 GMT 54.97165 -6.66563 35,625 140 503 -3264
2017-09-14 06:32:31 GMT 54.97362 -6.66846 35,675 140 503 -3200
2017-09-14 06:32:29 GMT 54.97760 -6.67403 35,800 140 502 -3200
2017-09-14 06:32:27 GMT 54.98080 -6.67864 35,875 140 501 -3136
2017-09-14 06:32:24 GMT 54.98583 -6.68576 36,025 140 500 -3072
2017-09-14 06:32:22 GMT 54.99048 -6.69234 36,150 140 500 -3008
2017-09-14 06:32:20 GMT 54.99407 -6.69742 36,250 140 498 -3008
2017-09-14 06:32:18 GMT 54.99870 -6.70400 36,350 140 498 -3008
2017-09-14 06:32:16 GMT 55.00156 -6.70799 36,450 140 498 -3008
2017-09-14 06:32:14 GMT 55.00515 -6.71306 36,550 140 498 -3008
2017-09-14 06:32:12 GMT 55.00905 -6.71862 36,650 140 497 -3072
2017-09-14 06:32:09 GMT 55.01527 -6.72743 36,825 140 496 -3136
2017-09-14 06:32:07 GMT 55.01756 -6.73074 36,875 140 495 -3072
2017-09-14 06:32:03 GMT 55.02502 -6.74128 37,075 140 495 -2624
2017-09-14 06:32:02 GMT 55.02681 -6.74383 37,125 140 495 -2624
2017-09-14 06:32:01 GMT 55.02681 -6.74383 37,125 140 495 -2496
2017-09-14 06:31:59 GMT 55.03052 -6.74910 37,200 140 494 -2368
2017-09-14 06:31:56 GMT 55.03704 -6.75834 37,325 140 494 -2048
2017-09-14 06:31:54 GMT 55.04057 -6.76342 37,400 140 494 -1920
2017-09-14 06:31:52 GMT 55.04324 -6.76717 37,450 140 494 -1856
2017-09-14 06:31:50 GMT 55.04765 -6.77349 37,525 140 494 -1792
2017-09-14 06:31:48 GMT 55.05081 -6.77798 37,575 140 494 -1728
2017-09-14 06:31:46 GMT 55.05418 -6.78277 37,625 140 495 -1600
2017-09-14 06:31:44 GMT 55.05931 -6.79003 37,700 140 496 -1408
2017-09-14 06:31:42 GMT 55.06301 -6.79538 37,750 140 496 -1216
2017-09-14 06:31:39 GMT 55.06585 -6.79937 37,800 140 496 -1152
2017-09-14 06:31:37 GMT 55.07030 -6.80571 37,825 140 496 -832
2017-09-14 06:31:35 GMT 55.07297 -6.80953 37,850 140 496 -960
2017-09-14 06:31:31 GMT 55.08112 -6.82118 37,925 140 496 -640
2017-09-14 06:31:29 GMT 55.08554 -6.82750 37,950 140 497 -512
2017-09-14 06:31:27 GMT 55.08838 -6.83156 37,950 140 497 -448
2017-09-14 06:31:25 GMT 55.09211 -6.83691 37,975 140 496 0
2017-09-14 06:31:23 GMT 55.09566 -6.84198 37,975 140 497 -256
2017-09-14 06:31:21 GMT 55.09831 -6.84577 38,000 140 496 -64
2017-09-14 06:31:19 GMT 55.10184 -6.85086 38,000 140 496 0
2017-09-14 06:31:17 GMT 55.10609 -6.85692 38,000 140 496 -64
2017-09-14 06:31:15 GMT 55.10962 -6.86201 38,000 140 496 -64
2017-09-14 06:31:13 GMT 55.11496 -6.86962 38,000 140 496 -128
2017-09-14 06:31:11 GMT 55.11655 -6.87186 38,000 140 496 -128
2017-09-14 06:31:09 GMT 55.12008 -6.87694 38,000 140 496 -128
2017-09-14 06:31:07 GMT 55.12521 -6.88435 38,000 140 496 -64
2017-09-14 06:31:04 GMT 55.12820 -6.88867 38,000 140 496 -64
2017-09-14 06:31:02 GMT 55.13173 -6.89376 38,000 140 495 0
2017-09-14 06:31:00 GMT 55.13493 -6.89828 38,000 140 496 0
2017-09-14 06:30:58 GMT 55.14043 -6.90612 38,000 140 495 -64
2017-09-14 06:30:55 GMT 55.14485 -6.91248 38,000 140 496 -64
2017-09-14 06:30:52 GMT 55.15030 -6.92039 38,000 140 495 -64
2017-09-14 06:30:51 GMT 55.15297 -6.92413 38,000 140 495 0
2017-09-14 06:30:50 GMT 55.15439 -6.92621 38,000 140 495 0
2017-09-14 06:30:48 GMT 55.15617 -6.92874 38,000 140 495 64
2017-09-14 06:30:46 GMT 55.15951 -6.93354 38,000 140 495 64
2017-09-14 06:30:44 GMT 55.16412 -6.94011 38,000 140 495 0
2017-09-14 06:30:42 GMT 55.16872 -6.94667 38,000 140 496 0
2017-09-14 06:30:40 GMT 55.17045 -6.94927 38,000 140 496 0
2017-09-14 06:30:38 GMT 55.17399 -6.95426 38,000 140 495 0
2017-09-14 06:30:35 GMT 55.17934 -6.96194 38,000 140 495 0
2017-09-14 06:30:33 GMT 55.18265 -6.96675 38,000 140 495 0
2017-09-14 06:30:30 GMT 55.18782 -6.97407 38,000 140 495 64
2017-09-14 06:30:28 GMT 55.19220 -6.98044 38,000 140 495 64
2017-09-14 06:30:25 GMT 55.19861 -6.98957 38,000 140 495 128
2017-09-14 06:30:22 GMT 55.20229 -6.99496 38,000 140 495 64
2017-09-14 06:30:20 GMT 55.20690 -7.00154 38,000 140 495 64
2017-09-14 06:30:18 GMT 55.21024 -7.00637 37,975 140 496 64
2017-09-14 06:30:15 GMT 55.21607 -7.01477 37,975 140 496 64
2017-09-14 06:30:12 GMT 55.22194 -7.02318 37,975 140 496 64
2017-09-14 06:30:10 GMT 55.22443 -7.02673 37,975 140 497 64
2017-09-14 06:30:08 GMT 55.22758 -7.03133 37,975 140 496 64
2017-09-14 06:30:08 GMT 55.22758 -7.03133 37,975 140 497 64
2017-09-14 06:30:04 GMT 55.23609 -7.04357 37,975 140 496 0
2017-09-14 06:30:02 GMT 55.23805 -7.04631 37,975 140 497 0
2017-09-14 06:29:59 GMT 55.24280 -7.05322 37,975 140 497 0
2017-09-14 06:29:57 GMT 55.24654 -7.05855 37,975 140 497 0
2017-09-14 06:29:55 GMT 55.25006 -7.06372 37,975 140 496 0
2017-09-14 06:29:53 GMT 55.25252 -7.06729 37,975 140 496 -64
2017-09-14 06:29:50 GMT 55.26068 -7.07899 37,975 140 497 -64
2017-09-14 06:29:48 GMT 55.26453 -7.08465 37,975 140 497 0
2017-09-14 06:29:43 GMT 55.27180 -7.09517 38,000 140 497 -64
2017-09-14 06:29:41 GMT 55.27464 -7.09925 38,000 140 497 -64
2017-09-14 06:29:39 GMT 55.27920 -7.10591 38,000 140 497 0
2017-09-14 06:29:37 GMT 55.28293 -7.11122 38,000 140 497 0
2017-09-14 06:29:35 GMT 55.28679 -7.11689 38,000 140 497 0
2017-09-14 06:29:33 GMT 55.29033 -7.12197 37,975 140 497 0
2017-09-14 06:29:29 GMT 55.29652 -7.13096 37,975 140 497 0
2017-09-14 06:29:27 GMT 55.30006 -7.13612 38,000 140 497 0
2017-09-14 06:29:25 GMT 55.30485 -7.14303 38,000 140 497 0
2017-09-14 06:29:22 GMT 55.31030 -7.15093 38,000 140 497 -64
2017-09-14 06:29:20 GMT 55.31351 -7.15551 38,000 140 497 -64
2017-09-14 06:29:18 GMT 55.31616 -7.15934 38,000 140 497 0
2017-09-14 06:29:16 GMT 55.31882 -7.16325 38,000 140 497 0
2017-09-14 06:29:13 GMT 55.32426 -7.17116 38,000 140 497 0
2017-09-14 06:29:10 GMT 55.32939 -7.17860 38,000 140 497 0
2017-09-14 06:29:08 GMT 55.33296 -7.18368 38,000 140 497 0
2017-09-14 06:29:06 GMT 55.33717 -7.18991 38,000 140 497 0
2017-09-14 06:29:03 GMT 55.34214 -7.19704 38,000 140 497 0
2017-09-14 06:29:03 GMT 55.34321 -7.19862 38,000 140 497 0
2017-09-14 06:29:01 GMT 55.34674 -7.20372 38,000 140 497 0
2017-09-14 06:28:59 GMT 55.35080 -7.20961 37,975 140 497 0
2017-09-14 06:28:57 GMT 55.35433 -7.21477 38,000 140 497 64
2017-09-14 06:28:55 GMT 55.35612 -7.21737 38,000 140 497 0
2017-09-14 06:28:52 GMT 55.36157 -7.22529 38,000 140 497 0
2017-09-14 06:28:48 GMT 55.36972 -7.23716 38,000 140 497 0
2017-09-14 06:28:46 GMT 55.37288 -7.24177 38,000 140 497 0
2017-09-14 06:28:41 GMT 55.38138 -7.25414 38,000 140 497 0
2017-09-14 06:28:38 GMT 55.38666 -7.26188 38,000 140 497 0
2017-09-14 06:28:36 GMT 55.39018 -7.26705 38,000 140 497 0
2017-09-14 06:28:32 GMT 55.39707 -7.27703 38,000 140 497 0
2017-09-14 06:28:27 GMT 55.40573 -7.28968 38,000 140 497 0
2017-09-14 06:28:25 GMT 55.40945 -7.29508 38,000 140 497 0
2017-09-14 06:28:21 GMT 55.41655 -7.30542 38,000 140 497 0
2017-09-14 06:28:17 GMT 55.42360 -7.31576 38,000 140 497 0
2017-09-14 06:28:16 GMT 55.42626 -7.31964 38,000 140 497 0
2017-09-14 06:28:15 GMT 55.42733 -7.32114 38,000 140 497 0
2017-09-14 06:28:13 GMT 55.43208 -7.32813 38,000 140 497 0
2017-09-14 06:28:07 GMT 55.44196 -7.34258 38,000 140 498 -64
2017-09-14 06:28:05 GMT 55.44548 -7.34777 38,000 140 498 -64
2017-09-14 06:28:01 GMT 55.45237 -7.35784 38,000 140 498 0
2017-09-14 06:27:56 GMT 55.46013 -7.36925 38,000 140 498 0
2017-09-14 06:27:54 GMT 55.46420 -7.37526 38,000 140 497 0
2017-09-14 06:27:51 GMT 55.47002 -7.38376 38,000 140 498 -64
2017-09-14 06:27:47 GMT 55.47848 -7.39621 38,000 140 498 64
2017-09-14 06:27:44 GMT 55.48201 -7.40146 38,000 140 498 0
2017-09-14 06:27:41 GMT 55.48801 -7.41028 38,000 140 498 -64
2017-09-14 06:27:39 GMT 55.49083 -7.41440 38,000 140 498 -64
2017-09-14 06:27:36 GMT 55.49627 -7.42247 38,000 140 498 -64
2017-09-14 06:27:33 GMT 55.50050 -7.42875 38,000 140 498 0
2017-09-14 06:27:30 GMT 55.50632 -7.43733 38,000 139 498 64
2017-09-14 06:27:25 GMT 55.51497 -7.45014 38,000 139 498 0
2017-09-14 06:27:23 GMT 55.51866 -7.45560 38,000 140 499 0
2017-09-14 06:27:19 GMT 55.52728 -7.46830 38,000 140 499 0
2017-09-14 06:27:15 GMT 55.53505 -7.47980 37,975 140 499 0
2017-09-14 06:27:13 GMT 55.53685 -7.48236 38,000 140 499 0
2017-09-14 06:27:11 GMT 55.54125 -7.48893 38,000 140 499 0
2017-09-14 06:27:08 GMT 55.54582 -7.49567 37,975 140 499 0
2017-09-14 06:27:06 GMT 55.55078 -7.50298 37,975 140 499 0
2017-09-14 06:27:04 GMT 55.55182 -7.50449 37,975 140 499 0
2017-09-14 06:27:02 GMT 55.55553 -7.51001 37,975 140 499 64
2017-09-14 06:27:00 GMT 55.56033 -7.51706 38,000 140 499 64
2017-09-14 06:26:58 GMT 55.56331 -7.52143 37,975 140 499 64
2017-09-14 06:26:54 GMT 55.57022 -7.53163 37,975 140 499 0
2017-09-14 06:26:51 GMT 55.57746 -7.54237 37,975 140 499 0
2017-09-14 06:26:49 GMT 55.57819 -7.54336 37,975 140 499 0
2017-09-14 06:26:45 GMT 55.58629 -7.55535 38,000 140 499 0
2017-09-14 06:26:43 GMT 55.58966 -7.56031 38,000 140 499 0
2017-09-14 06:26:41 GMT 55.59250 -7.56452 38,000 140 499 64
2017-09-14 06:26:39 GMT 55.59618 -7.57000 37,975 140 499 0
2017-09-14 06:26:34 GMT 55.60465 -7.58254 37,975 140 499 0
2017-09-14 06:26:31 GMT 55.61014 -7.59069 38,000 140 499 0
2017-09-14 06:26:29 GMT 55.61458 -7.59721 37,975 140 499 0
2017-09-14 06:26:25 GMT 55.62286 -7.60953 38,000 140 499 64
2017-09-14 06:26:21 GMT 55.62815 -7.61739 37,975 140 499 64
2017-09-14 06:26:19 GMT 55.63257 -7.62393 38,000 140 499 0
2017-09-14 06:26:16 GMT 55.63877 -7.63309 37,975 140 499 -64
2017-09-14 06:26:13 GMT 55.64250 -7.63858 38,000 140 499 0
2017-09-14 06:26:10 GMT 55.64710 -7.64537 38,000 140 499 -64
2017-09-14 06:26:07 GMT 55.65450 -7.65644 38,000 139 500 0
2017-09-14 06:26:04 GMT 55.65804 -7.66168 38,000 139 500 0
2017-09-14 06:26:02 GMT 55.66141 -7.66663 38,000 139 500 0
2017-09-14 06:26:00 GMT 55.66493 -7.67187 38,000 139 500 0
2017-09-14 06:25:58 GMT 55.66973 -7.67901 38,000 139 500 0
2017-09-14 06:25:56 GMT 55.67415 -7.68554 38,000 139 500 0
2017-09-14 06:25:54 GMT 55.67680 -7.68949 38,000 139 500 0
2017-09-14 06:25:52 GMT 55.67944 -7.69343 38,000 139 500 0
2017-09-14 06:25:49 GMT 55.68649 -7.70391 38,000 139 500 -64
2017-09-14 06:25:47 GMT 55.69075 -7.71024 38,000 139 500 0
2017-09-14 06:25:42 GMT 55.69659 -7.71892 38,000 139 500 64
2017-09-14 06:25:39 GMT 55.70241 -7.72759 38,000 139 500 0
2017-09-14 06:25:38 GMT 55.70540 -7.73205 38,000 139 500 0
2017-09-14 06:25:36 GMT 55.70878 -7.73704 37,975 139 500 0
2017-09-14 06:25:34 GMT 55.71214 -7.74210 37,975 139 500 0
2017-09-14 06:25:32 GMT 55.71584 -7.74761 37,975 139 500 0
2017-09-14 06:25:28 GMT 55.72396 -7.75969 38,000 139 500 -64
2017-09-14 06:25:26 GMT 55.72504 -7.76134 38,000 139 500 -64
2017-09-14 06:25:23 GMT 55.73136 -7.77077 38,000 139 500 0
2017-09-14 06:25:20 GMT 55.73616 -7.77789 38,000 139 500 -64
2017-09-14 06:25:18 GMT 55.74002 -7.78373 38,000 139 501 0
2017-09-14 06:25:16 GMT 55.74323 -7.78845 38,000 139 501 0
2017-09-14 06:25:11 GMT 55.75185 -7.80141 38,000 139 501 0
2017-09-14 06:25:08 GMT 55.75734 -7.80956 38,000 139 501 -64
2017-09-14 06:25:06 GMT 55.76316 -7.81832 38,000 139 501 0
2017-09-14 06:25:03 GMT 55.76811 -7.82568 38,000 139 501 0
2017-09-14 06:25:01 GMT 55.76986 -7.82827 38,000 139 501 0
2017-09-14 06:24:59 GMT 55.77377 -7.83411 38,000 139 501 0
2017-09-14 06:24:54 GMT 55.78153 -7.84574 38,000 139 501 0
2017-09-14 06:24:51 GMT 55.78697 -7.85398 38,000 139 501 64
2017-09-14 06:24:49 GMT 55.79193 -7.86132 38,000 139 501 64
2017-09-14 06:24:44 GMT 55.79915 -7.87220 37,975 139 500 0
2017-09-14 06:24:41 GMT 55.80408 -7.87960 38,000 139 500 0
2017-09-14 06:24:35 GMT 55.81677 -7.89867 38,000 139 500 0
2017-09-14 06:24:31 GMT 55.82242 -7.90715 38,000 139 500 0
2017-09-14 06:24:28 GMT 55.82754 -7.91488 38,000 139 500 0
2017-09-14 06:24:25 GMT 55.83336 -7.92355 38,000 139 500 0
2017-09-14 06:24:21 GMT 55.83952 -7.93288 38,000 139 500 -64
2017-09-14 06:24:18 GMT 55.84497 -7.94112 38,000 139 500 -64
2017-09-14 06:24:16 GMT 55.84867 -7.94663 38,000 139 500 0
2017-09-14 06:24:14 GMT 55.85399 -7.95460 38,000 139 500 0
2017-09-14 06:24:10 GMT 55.85924 -7.96260 38,000 139 500 0
2017-09-14 06:24:05 GMT 55.86841 -7.97632 38,000 139 500 0
2017-09-14 06:24:01 GMT 55.87563 -7.98723 38,000 139 500 0
2017-09-14 06:23:57 GMT 55.88233 -7.99736 38,000 139 500 0
2017-09-14 06:23:53 GMT 55.88941 -8.00800 38,000 139 500 0
2017-09-14 06:23:50 GMT 55.89574 -8.01753 38,000 139 500 0
2017-09-14 06:23:47 GMT 55.90595 -8.03292 38,000 139 500 0
2017-09-14 06:23:42 GMT 55.90891 -8.03744 38,000 139 500 64
2017-09-14 06:23:40 GMT 55.91263 -8.04307 38,000 139 500 0
2017-09-14 06:23:36 GMT 55.91915 -8.05289 38,000 139 500 0
2017-09-14 06:23:32 GMT 55.92636 -8.06380 38,000 139 500 0
2017-09-14 06:23:29 GMT 55.93250 -8.07312 38,000 139 500 0
2017-09-14 06:23:22 GMT 55.94411 -8.09066 38,000 139 500 64
2017-09-14 06:23:18 GMT 55.95094 -8.10108 38,000 139 500 0
2017-09-14 06:23:12 GMT 55.96254 -8.11864 38,000 139 500 64
2017-09-14 06:23:10 GMT 55.96536 -8.12289 37,975 139 500 0
2017-09-14 06:23:04 GMT 55.97520 -8.13779 37,975 139 500 0
2017-09-14 06:23:01 GMT 55.98061 -8.14611 38,000 139 500 0
2017-09-14 06:22:59 GMT 55.98413 -8.15144 38,000 139 500 0
2017-09-14 06:22:56 GMT 55.98940 -8.15941 38,000 139 499 0
2017-09-14 06:22:54 GMT 55.99466 -8.16742 38,000 139 499 -64
2017-09-14 06:22:51 GMT 55.99801 -8.17245 38,000 139 499 0
2017-09-14 06:22:47 GMT 56.00500 -8.18318 38,000 139 499 0
2017-09-14 06:22:40 GMT 56.01747 -8.20207 38,000 139 499 0
2017-09-14 06:22:37 GMT 56.02309 -8.21062 38,000 139 499 0
2017-09-14 06:22:31 GMT 56.03567 -8.22988 38,000 139 499 0
2017-09-14 06:22:21 GMT 56.05042 -8.25231 38,000 139 499 0
2017-09-14 06:22:19 GMT 56.05443 -8.25846 38,000 139 499 0
2017-09-14 06:22:16 GMT 56.06053 -8.26781 38,000 139 499 0
2017-09-14 06:22:10 GMT 56.07088 -8.28361 38,000 139 498 0
2017-09-14 06:22:06 GMT 56.07788 -8.29426 38,000 139 498 64
2017-09-14 06:21:52 GMT 56.10237 -8.33180 38,000 139 499 0
2017-09-14 06:21:45 GMT 56.11463 -8.35055 37,975 139 499 0
2017-09-14 06:21:39 GMT 56.12403 -8.36497 37,975 139 499 -64
2017-09-14 06:21:34 GMT 56.13313 -8.37891 38,000 139 499 -64
2017-09-14 06:21:27 GMT 56.14502 -8.39716 38,000 139 499 0
2017-09-14 06:21:22 GMT 56.15499 -8.41252 38,000 139 499 0
2017-09-14 06:21:19 GMT 56.16023 -8.42060 38,000 139 499 0
2017-09-14 06:21:15 GMT 56.16737 -8.43159 38,000 139 499 0
2017-09-14 06:21:08 GMT 56.17822 -8.44832 38,000 139 499 0
2017-09-14 06:21:05 GMT 56.18348 -8.45638 38,000 139 499 0
2017-09-14 06:21:02 GMT 56.18907 -8.46497 38,000 139 499 0
2017-09-14 06:20:57 GMT 56.19851 -8.47956 38,000 139 499 0
2017-09-14 06:20:52 GMT 56.20638 -8.49168 38,000 139 499 0
2017-09-14 06:20:49 GMT 56.21350 -8.50273 38,000 139 499 -64
2017-09-14 06:20:43 GMT 56.22263 -8.51672 38,000 139 499 0
2017-09-14 06:20:37 GMT 56.23238 -8.53188 38,000 139 499 0
2017-09-14 06:20:32 GMT 56.24181 -8.54645 38,000 139 499 0
2017-09-14 06:20:27 GMT 56.24986 -8.55895 38,000 139 500 0
2017-09-14 06:20:23 GMT 56.25787 -8.57133 38,000 139 499 0
2017-09-14 06:20:20 GMT 56.26414 -8.58116 38,000 139 499 64
2017-09-14 06:20:17 GMT 56.26746 -8.58624 37,975 139 499 0
2017-09-14 06:20:12 GMT 56.27705 -8.60118 37,975 139 499 0
2017-09-14 06:20:07 GMT 56.28561 -8.61445 37,975 139 499 0
2017-09-14 06:20:04 GMT 56.29101 -8.62281 37,975 139 499 0
2017-09-14 06:20:01 GMT 56.29641 -8.63122 38,000 139 499 0
2017-09-14 06:19:57 GMT 56.30306 -8.64158 38,000 139 499 -64
2017-09-14 06:19:51 GMT 56.31523 -8.66056 38,000 139 499 0
2017-09-14 06:19:47 GMT 56.32063 -8.66896 38,000 139 499 64
2017-09-14 06:19:39 GMT 56.33405 -8.68994 37,975 139 499 0
2017-09-14 06:19:35 GMT 56.34187 -8.70209 38,000 139 499 0
2017-09-14 06:19:29 GMT 56.35246 -8.71868 38,000 138 499 0
2017-09-14 06:19:26 GMT 56.35768 -8.72683 38,000 138 499 0
2017-09-14 06:19:20 GMT 56.36778 -8.74262 38,000 138 499 0
2017-09-14 06:19:15 GMT 56.37611 -8.75576 38,000 138 499 0
2017-09-14 06:19:09 GMT 56.38586 -8.77100 38,000 138 499 64
2017-09-14 06:19:06 GMT 56.39333 -8.78271 37,975 138 499 0
2017-09-14 06:19:00 GMT 56.40166 -8.79580 37,975 138 499 -64
2017-09-14 06:18:55 GMT 56.41037 -8.80940 38,000 138 499 -64
2017-09-14 06:18:50 GMT 56.42220 -8.82803 38,000 138 499 0
2017-09-14 06:18:45 GMT 56.42862 -8.83807 38,000 138 499 0
2017-09-14 06:18:35 GMT 56.44684 -8.86680 38,000 138 499 0
2017-09-14 06:18:28 GMT 56.45691 -8.88270 38,000 138 499 0
2017-09-14 06:18:24 GMT 56.46489 -8.89532 37,975 138 499 0
2017-09-14 06:18:13 GMT 56.48378 -8.92510 37,975 138 499 0
2017-09-14 06:18:07 GMT 56.49491 -8.94270 38,000 138 499 -64
2017-09-14 06:18:04 GMT 56.50078 -8.95205 38,000 138 499 0
2017-09-14 06:17:53 GMT 56.51866 -8.98032 38,000 138 499 0
2017-09-14 06:17:42 GMT 56.53667 -9.00887 38,000 138 499 0
2017-09-14 06:17:32 GMT 56.55414 -9.03667 38,000 138 499 -64
2017-09-14 06:17:23 GMT 56.57158 -9.06449 38,000 138 499 0
2017-09-14 06:17:12 GMT 56.58960 -9.09316 38,000 138 499 0
2017-09-14 06:17:02 GMT 56.60724 -9.12131 38,000 138 500 0
2017-09-14 06:16:51 GMT 56.62717 -9.15294 38,000 138 499 -64
2017-09-14 06:16:39 GMT 56.64588 -9.18271 38,000 138 499 0
2017-09-14 06:16:31 GMT 56.66029 -9.20560 38,000 138 499 0
2017-09-14 06:16:17 GMT 56.68531 -9.24526 38,000 138 499 0
2017-09-14 06:16:11 GMT 56.69641 -9.26285 37,975 139 500 0
2017-09-14 06:16:00 GMT 56.71436 -9.29115 38,000 139 499 0
2017-09-14 06:15:49 GMT 56.73358 -9.32137 37,975 139 499 0
We lost coverage of the aircraft here for a total of 98 minutes
2017-09-14 04:37:20 GMT 60.06670 -34.43330 37,000 90 510 0
2017-09-14 04:36:20 GMT 60.06670 -34.68330 37,000 90 510 0
2017-09-14 04:35:20 GMT 60.06670 -34.96670 37,000 90 510 0
2017-09-14 04:34:20 GMT 60.06670 -35.23330 37,000 87 510 0
2017-09-14 04:33:20 GMT 60.06670 -35.51670 37,000 87 510 0
2017-09-14 04:32:20 GMT 60.06670 -35.80000 37,000 87 510 0
2017-09-14 04:31:20 GMT 60.05000 -36.10000 37,000 90 510 0
2017-09-14 04:30:20 GMT 60.05000 -36.36670 37,000 90 510 0
2017-09-14 04:29:20 GMT 60.05000 -36.65000 37,000 87 510 0
2017-09-14 04:28:20 GMT 60.05000 -36.93330 37,000 87 510 0
2017-09-14 04:27:20 GMT 60.05000 -37.21670 37,000 87 510 0
2017-09-14 04:26:20 GMT 60.03330 -37.50000 37,000 90 510 0
2017-09-14 04:25:20 GMT 60.03330 -37.78330 37,000 87 510 0
2017-09-14 04:24:20 GMT 60.03330 -38.06670 37,000 87 510 0
2017-09-14 04:23:20 GMT 60.03330 -38.35000 37,000 85 510 0
2017-09-14 04:22:20 GMT 60.01670 -38.60000 37,000 87 510 0
2017-09-14 04:21:20 GMT 60.01670 -38.88330 37,000 85 510 0
2017-09-14 04:20:20 GMT 60.00000 -39.16670 37,000 83 510 0
2017-09-14 04:19:20 GMT 60.00000 -39.45000 37,000 78 510 0
2017-09-14 04:18:20 GMT 59.98330 -39.73330 37,000 73 510 0
2017-09-14 04:17:20 GMT 59.95000 -40.00000 37,000 73 510 0
2017-09-14 04:16:20 GMT 59.91670 -40.26670 37,000 73 510 0
2017-09-14 04:15:20 GMT 59.86670 -40.53330 37,000 73 510 0
2017-09-14 04:14:20 GMT 59.83330 -40.78330 37,000 71 510 0
2017-09-14 04:13:20 GMT 59.80000 -41.05000 37,000 69 510 0
2017-09-14 04:12:20 GMT 59.75000 -41.31670 37,000 73 500 0
2017-09-14 04:11:20 GMT 59.70000 -41.58330 37,000 73 510 0
2017-09-14 04:10:20 GMT 59.65000 -41.85000 37,000 73 510 0
2017-09-14 04:09:20 GMT 59.63330 -42.10000 37,000 69 510 0
2017-09-14 04:08:20 GMT 59.58330 -42.36670 37,000 71 510 0
2017-09-14 04:07:20 GMT 59.53330 -42.63330 37,000 71 510 0
2017-09-14 04:06:20 GMT 59.48330 -42.90000 37,000 71 510 0
2017-09-14 04:05:20 GMT 59.45000 -43.15000 37,000 69 510 0
2017-09-14 04:04:20 GMT 59.40000 -43.41670 37,000 69 510 0
2017-09-14 04:03:20 GMT 59.35000 -43.66670 37,000 67 510 0
2017-09-14 04:02:20 GMT 59.30000 -43.93330 37,000 66 500 0
2017-09-14 04:01:20 GMT 59.25000 -44.18330 37,000 69 510 0
2017-09-14 04:00:20 GMT 59.18330 -44.45000 37,000 71 500 0
2017-09-14 03:59:20 GMT 59.13330 -44.70000 37,000 68 500 0
2017-09-14 03:58:20 GMT 59.10000 -44.95000 37,000 68 500 0
2017-09-14 03:57:20 GMT 59.05000 -45.21670 37,000 67 500 0
2017-09-14 03:56:20 GMT 58.98330 -45.43330 37,000 69 500 0
2017-09-14 03:55:20 GMT 58.95000 -45.68330 37,000 68 500 0
2017-09-14 03:54:20 GMT 58.90000 -45.93330 37,000 66 500 0
2017-09-14 03:53:20 GMT 58.83330 -46.20000 37,000 68 500 0
2017-09-14 03:52:20 GMT 58.80000 -46.41670 37,000 67 500 0
2017-09-14 03:51:20 GMT 58.73330 -46.66670 37,000 66 500 0
2017-09-14 03:50:20 GMT 58.68330 -46.91670 37,000 66 500 0
2017-09-14 03:49:20 GMT 58.63330 -47.20000 37,000 65 500 0
2017-09-14 03:48:20 GMT 58.56670 -47.41670 37,000 66 500 0
2017-09-14 03:47:20 GMT 58.51670 -47.66670 37,000 68 500 0
2017-09-14 03:46:20 GMT 58.46670 -47.90000 37,000 66 510 0
2017-09-14 03:45:20 GMT 58.40000 -48.15000 37,000 65 500 0
2017-09-14 03:44:20 GMT 58.36670 -48.40000 37,000 63 500 0
2017-09-14 03:43:20 GMT 58.30000 -48.61670 37,000 66 500 0
2017-09-14 03:42:20 GMT 58.23330 -48.85000 37,000 66 500 0
2017-09-14 03:41:20 GMT 58.18330 -49.10000 37,000 64 500 0
2017-09-14 03:40:20 GMT 58.13330 -49.33330 37,000 64 500 0
2017-09-14 03:39:20 GMT 58.06670 -49.58330 37,000 65 500 0
2017-09-14 03:38:20 GMT 58.00000 -49.81670 37,000 68 500 0
2017-09-14 03:37:20 GMT 57.95000 -50.06670 37,000 64 500 0
2017-09-14 03:36:20 GMT 57.90000 -50.30000 37,000 61 500 0
2017-09-14 03:35:20 GMT 57.83330 -50.55000 37,000 63 490 0
2017-09-14 03:34:20 GMT 57.78330 -50.78330 37,000 62 490 0
2017-09-14 03:33:06 GMT 57.70000 -51.05000 37,000 61 490 0
2017-09-14 03:32:06 GMT 57.63330 -51.28330 37,000 68 490 0
We lost coverage of the aircraft here for a total of 172 minutes
2017-09-14 00:40:06 GMT 45.41519 -85.28909 34,975 33 466 0
2017-09-14 00:39:57 GMT 45.40072 -85.30294 35,000 33 466 0
2017-09-14 00:39:46 GMT 45.38068 -85.32205 35,000 33 466 0
2017-09-14 00:39:29 GMT 45.34975 -85.35158 35,000 33 466 0
2017-09-14 00:39:22 GMT 45.33904 -85.36176 35,000 33 466 -64
2017-09-14 00:39:13 GMT 45.32335 -85.37677 35,000 33 465 64
2017-09-14 00:38:42 GMT 45.26477 -85.43243 35,000 33 464 0
2017-09-14 00:38:36 GMT 45.25566 -85.44107 35,000 33 464 0
2017-09-14 00:38:31 GMT 45.24673 -85.44958 35,000 33 464 -64
2017-09-14 00:38:19 GMT 45.22657 -85.46874 35,000 33 464 64
2017-09-14 00:38:14 GMT 45.21656 -85.47819 35,000 33 464 0
2017-09-14 00:37:06 GMT 45.09439 -85.59357 35,000 33 463 0
2017-09-14 00:36:56 GMT 45.07639 -85.61056 35,000 33 463 0
2017-09-14 00:35:29 GMT 44.92355 -85.75418 35,000 33 461 0
2017-09-14 00:35:13 GMT 44.89298 -85.78272 35,000 33 461 0
2017-09-14 00:35:09 GMT 44.88590 -85.78936 35,000 33 460 0
2017-09-14 00:34:57 GMT 44.86691 -85.80711 35,000 33 460 0
2017-09-14 00:34:45 GMT 44.84422 -85.82833 35,000 33 460 0
2017-09-14 00:34:38 GMT 44.83339 -85.83839 35,000 33 459 0
2017-09-14 00:34:11 GMT 44.78437 -85.88408 35,000 33 459 0
2017-09-14 00:34:05 GMT 44.77501 -85.89281 35,000 33 459 0
2017-09-14 00:33:55 GMT 44.75523 -85.91121 35,000 33 458 0
2017-09-14 00:33:27 GMT 44.70488 -85.95795 35,000 33 457 0
2017-09-14 00:32:56 GMT 44.65286 -86.00607 35,000 33 457 0
2017-09-14 00:32:54 GMT 44.64757 -86.01098 35,000 33 457 0
2017-09-14 00:32:42 GMT 44.62871 -86.02844 35,000 33 457 64
2017-09-14 00:32:32 GMT 44.61035 -86.04538 35,000 33 457 0
2017-09-14 00:32:30 GMT 44.60522 -86.05015 35,000 33 457 0
2017-09-14 00:32:20 GMT 44.58899 -86.06509 35,000 33 457 -64
2017-09-14 00:32:11 GMT 44.57277 -86.08010 35,000 33 457 0
2017-09-14 00:31:59 GMT 44.54947 -86.10153 35,000 33 457 0
2017-09-14 00:31:48 GMT 44.53235 -86.11731 35,000 33 457 0
2017-09-14 00:31:40 GMT 44.51679 -86.13161 35,000 33 457 0
2017-09-14 00:31:28 GMT 44.49756 -86.14929 35,000 33 457 0
2017-09-14 00:31:28 GMT 44.49756 -86.14929 35,000 33 457 0
2017-09-14 00:31:19 GMT 44.47902 -86.16636 35,000 33 457 0
2017-09-14 00:31:16 GMT 44.47549 -86.16956 35,000 33 457 0
2017-09-14 00:31:08 GMT 44.46121 -86.18271 35,000 33 457 0
2017-09-14 00:31:05 GMT 44.45487 -86.18855 35,000 33 457 0
2017-09-14 00:31:03 GMT 44.45064 -86.19239 35,000 33 457 0
2017-09-14 00:30:58 GMT 44.44268 -86.19967 35,000 33 456 0
2017-09-14 00:30:55 GMT 44.43773 -86.20422 35,000 33 456 0
2017-09-14 00:30:46 GMT 44.42345 -86.21729 35,000 33 456 0
2017-09-14 00:30:44 GMT 44.41763 -86.22258 35,000 33 456 0
2017-09-14 00:30:36 GMT 44.40543 -86.23377 35,000 33 457 0
2017-09-14 00:30:25 GMT 44.38637 -86.25118 35,000 33 457 0
2017-09-14 00:30:23 GMT 44.38002 -86.25701 35,000 33 456 0
2017-09-14 00:30:13 GMT 44.36256 -86.27295 35,000 33 456 0
2017-09-14 00:30:05 GMT 44.34934 -86.28501 35,000 33 456 0
2017-09-14 00:29:53 GMT 44.33025 -86.30245 35,000 33 456 0
2017-09-14 00:29:51 GMT 44.32657 -86.30578 34,975 33 456 0
2017-09-14 00:29:40 GMT 44.30484 -86.32560 35,000 33 456 0
2017-09-14 00:29:32 GMT 44.29303 -86.33632 34,975 33 455 0
2017-09-14 00:29:30 GMT 44.28790 -86.34096 34,975 33 456 0
2017-09-14 00:29:22 GMT 44.27397 -86.35368 34,975 33 456 0
2017-09-14 00:29:13 GMT 44.25705 -86.36908 34,975 33 456 0
2017-09-14 00:29:11 GMT 44.25600 -86.37002 34,975 33 456 0
2017-09-14 00:29:00 GMT 44.23715 -86.38724 34,975 33 456 0
2017-09-14 00:28:51 GMT 44.21896 -86.40381 35,000 33 455 0
2017-09-14 00:28:45 GMT 44.20715 -86.41460 35,000 33 455 -64
2017-09-14 00:28:40 GMT 44.20047 -86.42067 35,000 33 455 0
2017-09-14 00:28:34 GMT 44.18832 -86.43180 35,000 33 455 0
2017-09-14 00:28:30 GMT 44.18143 -86.43807 35,000 33 456 0
2017-09-14 00:28:24 GMT 44.17049 -86.44797 35,000 33 455 0
2017-09-14 00:28:19 GMT 44.16096 -86.45665 35,000 33 455 0
2017-09-14 00:28:12 GMT 44.14912 -86.46737 35,000 33 455 0
2017-09-14 00:28:07 GMT 44.14241 -86.47345 35,000 33 455 0
2017-09-14 00:28:02 GMT 44.13167 -86.48323 35,000 33 455 0
2017-09-14 00:27:57 GMT 44.12319 -86.49085 35,000 33 455 0
2017-09-14 00:27:49 GMT 44.10992 -86.50284 35,000 33 455 0
2017-09-14 00:27:45 GMT 44.10308 -86.50909 35,000 33 455 0
2017-09-14 00:27:35 GMT 44.08557 -86.52492 35,000 33 455 0
2017-09-14 00:27:30 GMT 44.07779 -86.53190 35,000 33 455 0
2017-09-14 00:27:25 GMT 44.06667 -86.54199 35,000 33 455 0
2017-09-14 00:27:20 GMT 44.05856 -86.54927 34,975 33 455 0
2017-09-14 00:27:17 GMT 44.05431 -86.55310 34,975 33 455 0
2017-09-14 00:27:13 GMT 44.04831 -86.55853 34,975 33 455 0
2017-09-14 00:27:09 GMT 44.04089 -86.56524 34,975 33 456 0
2017-09-14 00:27:04 GMT 44.02991 -86.57514 35,000 33 456 -64
2017-09-14 00:26:57 GMT 44.01682 -86.58691 35,000 33 456 0
2017-09-14 00:26:52 GMT 44.01064 -86.59251 35,000 33 456 0
2017-09-14 00:26:42 GMT 43.99164 -86.60963 35,000 32 457 0
2017-09-14 00:26:34 GMT 43.97800 -86.62190 35,000 32 457 0
2017-09-14 00:26:32 GMT 43.97338 -86.62609 35,000 32 457 0
2017-09-14 00:26:21 GMT 43.95458 -86.64296 35,000 32 457 0
2017-09-14 00:26:12 GMT 43.93721 -86.65859 35,000 32 457 0
2017-09-14 00:26:09 GMT 43.93456 -86.66099 35,000 32 457 0
2017-09-14 00:26:00 GMT 43.91574 -86.67785 35,000 33 456 0
2017-09-14 00:25:49 GMT 43.89769 -86.69410 35,000 32 455 0
2017-09-14 00:25:37 GMT 43.87724 -86.71241 35,000 32 454 0
2017-09-14 00:25:27 GMT 43.85789 -86.72974 34,975 32 452 0
2017-09-14 00:25:16 GMT 43.83984 -86.74594 34,975 32 451 64
2017-09-14 00:25:06 GMT 43.82130 -86.76250 34,975 32 449 0
2017-09-14 00:25:05 GMT 43.82130 -86.76250 34,975 32 449 0
2017-09-14 00:24:53 GMT 43.79796 -86.78330 35,000 32 447 0
2017-09-14 00:24:44 GMT 43.78340 -86.79624 35,000 32 444 -64
2017-09-14 00:24:34 GMT 43.76688 -86.81103 35,000 32 441 -64
2017-09-14 00:24:29 GMT 43.75901 -86.81802 35,000 32 440 -64
2017-09-14 00:24:23 GMT 43.74807 -86.82776 35,000 32 439 -64
2017-09-14 00:24:20 GMT 43.74330 -86.83198 35,000 32 438 -64
2017-09-14 00:24:11 GMT 43.72755 -86.84603 35,000 32 434 576
2017-09-14 00:24:02 GMT 43.71302 -86.85896 34,900 32 434 640
2017-09-14 00:23:59 GMT 43.70796 -86.86347 34,875 32 434 640
2017-09-14 00:23:51 GMT 43.69435 -86.87557 34,800 32 433 640
2017-09-14 00:23:44 GMT 43.68224 -86.88633 34,725 32 432 640
2017-09-14 00:23:40 GMT 43.67656 -86.89138 34,675 32 431 640
2017-09-14 00:23:34 GMT 43.66681 -86.90000 34,625 32 431 576
2017-09-14 00:23:30 GMT 43.65861 -86.90729 34,575 32 430 640
2017-09-14 00:23:22 GMT 43.64626 -86.91827 34,475 32 429 832
2017-09-14 00:23:20 GMT 43.64095 -86.92300 34,450 32 429 768
2017-09-14 00:23:17 GMT 43.63527 -86.92804 34,400 32 429 704
2017-09-14 00:23:09 GMT 43.62378 -86.93821 34,300 32 428 1088
2017-09-14 00:23:04 GMT 43.61595 -86.94515 34,200 32 428 1792
2017-09-14 00:23:04 GMT 43.61595 -86.94515 34,200 32 431 1792
2017-09-14 00:22:58 GMT 43.60492 -86.95494 33,975 32 431 1984
2017-09-14 00:22:54 GMT 43.59887 -86.96032 33,875 32 433 1856
2017-09-14 00:22:51 GMT 43.59366 -86.96496 33,775 32 431 1792
2017-09-14 00:22:48 GMT 43.58844 -86.96954 33,700 32 435 1856
2017-09-14 00:22:44 GMT 43.58034 -86.97678 33,550 32 436 1856
2017-09-14 00:22:44 GMT 43.58185 -86.97544 33,575 32 436 1856
2017-09-14 00:22:37 GMT 43.57017 -86.98579 33,375 32 437 1856
2017-09-14 00:22:34 GMT 43.56419 -86.99105 33,250 32 439 1856
2017-09-14 00:22:27 GMT 43.55171 -87.00211 33,050 32 441 1856
2017-09-14 00:22:19 GMT 43.53868 -87.01368 32,800 32 442 1856
2017-09-14 00:22:16 GMT 43.53384 -87.01793 32,725 32 444 1856
2017-09-14 00:22:11 GMT 43.52467 -87.02603 32,575 32 445 1856
2017-09-14 00:22:05 GMT 43.51568 -87.03402 32,400 32 447 1856
2017-09-14 00:22:01 GMT 43.50679 -87.04180 32,250 32 448 1856
2017-09-14 00:21:55 GMT 43.49664 -87.05076 32,075 32 450 1920
2017-09-14 00:21:48 GMT 43.48454 -87.06142 31,850 32 451 1920
2017-09-14 00:21:42 GMT 43.47345 -87.07125 31,650 32 453 2176
2017-09-14 00:21:37 GMT 43.46549 -87.07821 31,500 32 456 1600
2017-09-14 00:21:34 GMT 43.46019 -87.08293 31,425 32 456 1344
2017-09-14 00:21:31 GMT 43.45558 -87.08699 31,375 32 456 1344
2017-09-14 00:21:30 GMT 43.45363 -87.08869 31,350 32 456 1344
2017-09-14 00:21:28 GMT 43.44883 -87.09294 31,300 32 456 1408
2017-09-14 00:21:26 GMT 43.44704 -87.09450 31,275 32 456 1344
2017-09-14 00:21:23 GMT 43.43903 -87.10153 31,175 32 456 1408
2017-09-14 00:21:17 GMT 43.42909 -87.11027 31,050 32 456 1408
2017-09-14 00:21:13 GMT 43.42234 -87.11622 30,950 32 456 1408
2017-09-14 00:21:11 GMT 43.42058 -87.11775 30,925 32 456 1344
2017-09-14 00:21:06 GMT 43.40955 -87.12746 30,800 32 456 1344
2017-09-14 00:21:01 GMT 43.40245 -87.13372 30,725 32 457 1408
2017-09-14 00:20:57 GMT 43.39462 -87.14062 30,600 32 457 1408
2017-09-14 00:20:55 GMT 43.39069 -87.14401 30,550 32 457 1408
2017-09-14 00:20:51 GMT 43.38254 -87.15121 30,450 32 457 1408
2017-09-14 00:20:50 GMT 43.38341 -87.15045 30,475 32 457 1408
2017-09-14 00:20:45 GMT 43.37379 -87.15886 30,350 32 457 1408
2017-09-14 00:20:43 GMT 43.37114 -87.16125 30,325 32 457 1408
2017-09-14 00:20:39 GMT 43.36368 -87.16776 30,225 32 457 1408
2017-09-14 00:20:33 GMT 43.35136 -87.17856 30,050 32 457 1536
2017-09-14 00:20:29 GMT 43.34587 -87.18341 29,975 32 457 1600
2017-09-14 00:20:28 GMT 43.34322 -87.18578 29,950 32 457 1600
2017-09-14 00:20:25 GMT 43.33804 -87.19031 29,875 32 457 1600
2017-09-14 00:20:22 GMT 43.33143 -87.19607 29,775 32 457 1664
2017-09-14 00:20:20 GMT 43.32789 -87.19921 29,725 32 457 1664
2017-09-14 00:20:19 GMT 43.32626 -87.20058 29,700 32 457 1664
2017-09-14 00:20:16 GMT 43.32342 -87.20313 29,650 32 457 1664
2017-09-14 00:20:13 GMT 43.31756 -87.20830 29,550 32 458 1792
2017-09-14 00:20:11 GMT 43.31218 -87.21299 29,475 32 458 1856
2017-09-14 00:20:07 GMT 43.30578 -87.21863 29,375 32 458 1792
2017-09-14 00:20:03 GMT 43.29950 -87.22410 29,275 32 461 1792
2017-09-14 00:19:58 GMT 43.28842 -87.23387 29,100 32 459 1728
2017-09-14 00:19:48 GMT 43.27052 -87.24959 28,800 32 461 1984
2017-09-14 00:19:46 GMT 43.26979 -87.25021 28,800 32 461 1984
2017-09-14 00:19:46 GMT 43.26979 -87.25021 28,800 32 461 1984
2017-09-14 00:19:38 GMT 43.25386 -87.26421 28,550 32 461 1728
2017-09-14 00:19:36 GMT 43.25134 -87.26638 28,500 32 461 1728
2017-09-14 00:19:35 GMT 43.24954 -87.26800 28,475 32 461 1728
2017-09-14 00:19:34 GMT 43.24704 -87.27022 28,425 32 461 1728
2017-09-14 00:19:26 GMT 43.23106 -87.28420 28,175 32 461 1792
2017-09-14 00:19:17 GMT 43.21504 -87.29826 27,925 32 462 1792
2017-09-14 00:19:15 GMT 43.21344 -87.29966 27,900 32 462 1792
2017-09-14 00:19:05 GMT 43.19472 -87.31608 27,600 32 462 1792
2017-09-14 00:19:02 GMT 43.19005 -87.32019 27,525 32 462 1792
2017-09-14 00:18:55 GMT 43.17566 -87.33281 27,300 32 462 1792
2017-09-14 00:18:52 GMT 43.17279 -87.33537 27,250 32 462 1792
2017-09-14 00:18:43 GMT 43.15602 -87.35001 26,975 32 462 1856
2017-09-14 00:18:32 GMT 43.13621 -87.36737 26,625 32 463 2048
2017-09-14 00:18:23 GMT 43.11761 -87.38368 26,300 32 464 2112
2017-09-14 00:18:15 GMT 43.10551 -87.39428 26,075 32 465 2176
2017-09-14 00:18:11 GMT 43.09862 -87.40036 25,925 32 466 2112
2017-09-14 00:18:06 GMT 43.08646 -87.41093 25,725 32 466 1856
2017-09-14 00:18:01 GMT 43.07897 -87.41749 25,600 32 466 1600
2017-09-14 00:17:51 GMT 43.05994 -87.43410 25,375 32 464 1408
2017-09-14 00:17:39 GMT 43.03913 -87.45215 25,125 32 463 960
2017-09-14 00:17:29 GMT 43.02127 -87.46752 25,000 32 458 768
2017-09-14 00:17:18 GMT 43.00277 -87.48348 24,800 32 454 1600
2017-09-14 00:17:11 GMT 42.98820 -87.49603 24,600 32 452 1408
2017-09-14 00:17:08 GMT 42.98383 -87.49991 24,550 32 452 1408
2017-09-14 00:16:58 GMT 42.96501 -87.51632 24,250 32 450 2048
2017-09-14 00:16:57 GMT 42.96414 -87.51703 24,225 32 450 2048
2017-09-14 00:16:46 GMT 42.94579 -87.53274 23,875 31 450 2048
2017-09-14 00:16:46 GMT 42.94667 -87.53200 23,900 31 450 2048
2017-09-14 00:16:39 GMT 42.93324 -87.54341 23,650 31 449 1856
2017-09-14 00:16:35 GMT 42.92619 -87.54935 23,550 31 449 1792
2017-09-14 00:16:35 GMT 42.92619 -87.54935 23,550 31 449 1792
2017-09-14 00:16:28 GMT 42.91278 -87.56065 23,350 31 448 1600
2017-09-14 00:16:25 GMT 42.90889 -87.56391 23,275 31 447 1536
2017-09-14 00:16:24 GMT 42.90733 -87.56525 23,250 31 447 1536
2017-09-14 00:16:17 GMT 42.89369 -87.57694 23,075 32 444 1408
2017-09-14 00:16:15 GMT 42.88989 -87.58026 23,025 32 443 1344
2017-09-14 00:16:08 GMT 42.87866 -87.59001 22,875 32 440 1408
2017-09-14 00:16:03 GMT 42.87024 -87.59733 22,775 32 439 1344
2017-09-14 00:15:57 GMT 42.85957 -87.60629 22,650 31 438 1472
2017-09-14 00:15:53 GMT 42.85313 -87.61156 22,550 30 435 1536
2017-09-14 00:15:46 GMT 42.84146 -87.62069 22,375 29 434 1664
2017-09-14 00:15:43 GMT 42.83388 -87.62630 22,275 27 432 1536
2017-09-14 00:15:34 GMT 42.81917 -87.63591 22,075 23 430 1472
2017-09-14 00:15:32 GMT 42.81532 -87.63813 22,025 21 429 1472
2017-09-14 00:15:26 GMT 42.80548 -87.64324 21,900 19 428 1664
2017-09-14 00:15:24 GMT 42.79929 -87.64605 21,800 17 426 1792
2017-09-14 00:15:21 GMT 42.79573 -87.64762 21,750 17 426 1792
2017-09-14 00:15:21 GMT 42.79477 -87.64797 21,725 17 425 1792
2017-09-14 00:15:11 GMT 42.77578 -87.65589 21,450 16 423 1792
2017-09-14 00:15:03 GMT 42.75897 -87.66279 21,200 16 420 1728
2017-09-14 00:15:00 GMT 42.75600 -87.66400 21,150 16 419 1792
2017-09-14 00:14:58 GMT 42.75119 -87.66603 21,075 16 415 1280
2017-09-14 00:14:54 GMT 42.74579 -87.66815 21,000 16 417 2304
2017-09-14 00:14:51 GMT 42.73764 -87.67146 20,850 16 417 2240
2017-09-14 00:14:48 GMT 42.73244 -87.67352 20,725 16 417 2304
2017-09-14 00:14:47 GMT 42.73244 -87.67352 20,725 16 416 2432
2017-09-14 00:14:41 GMT 42.71838 -87.67907 20,425 16 416 3008
2017-09-14 00:14:37 GMT 42.71340 -87.68099 20,275 16 417 3072
2017-09-14 00:14:35 GMT 42.71042 -87.68214 20,225 16 417 3008
2017-09-14 00:14:33 GMT 42.70358 -87.68489 20,050 16 417 2816
2017-09-14 00:14:28 GMT 42.69594 -87.68788 19,875 16 418 2432
2017-09-14 00:14:21 GMT 42.68207 -87.69345 19,650 16 416 1472
2017-09-14 00:14:18 GMT 42.67726 -87.69537 19,575 16 414 1216
2017-09-14 00:14:16 GMT 42.67323 -87.69699 19,550 16 412 1088
2017-09-14 00:14:13 GMT 42.66920 -87.69861 19,525 16 411 960
2017-09-14 00:14:09 GMT 42.66028 -87.70223 19,450 16 408 832
2017-09-14 00:14:06 GMT 42.65703 -87.70355 19,425 16 405 832
2017-09-14 00:14:05 GMT 42.65558 -87.70411 19,400 16 399 384
2017-09-14 00:14:00 GMT 42.64325 -87.70910 19,350 16 400 448
2017-09-14 00:13:56 GMT 42.63776 -87.71129 19,325 16 394 0
2017-09-14 00:13:54 GMT 42.63528 -87.71228 19,325 16 394 0
2017-09-14 00:13:46 GMT 42.62006 -87.71823 19,325 16 382 128
2017-09-14 00:13:46 GMT 42.61922 -87.71859 19,325 16 382 128
2017-09-14 00:13:45 GMT 42.62006 -87.71823 19,325 16 382 128
2017-09-14 00:13:36 GMT 42.60358 -87.72474 19,325 16 371 192
2017-09-14 00:13:34 GMT 42.60196 -87.72539 19,300 16 369 192
2017-09-14 00:13:34 GMT 42.60112 -87.72577 19,300 16 369 192
2017-09-14 00:13:34 GMT 42.60112 -87.72577 19,300 16 369 192
2017-09-14 00:13:28 GMT 42.59093 -87.72995 19,300 16 363 192
2017-09-14 00:13:25 GMT 42.58468 -87.73247 19,275 17 356 576
2017-09-14 00:13:23 GMT 42.58315 -87.73313 19,275 17 357 448
2017-09-14 00:13:19 GMT 42.57687 -87.73588 19,225 17 352 768
2017-09-14 00:13:15 GMT 42.56951 -87.73918 19,125 18 347 1920
2017-09-14 00:13:13 GMT 42.56799 -87.73987 19,100 18 347 2112
2017-09-14 00:13:10 GMT 42.56222 -87.74250 18,975 19 345 2048
2017-09-14 00:13:04 GMT 42.55225 -87.74724 18,775 19 343 1792
2017-09-14 00:13:03 GMT 42.55168 -87.74755 18,750 19 342 1536
2017-09-14 00:13:03 GMT 42.55168 -87.74755 18,750 19 343 1792
2017-09-14 00:13:00 GMT 42.54822 -87.74918 18,700 19 343 1600
2017-09-14 00:12:58 GMT 42.54584 -87.75036 18,650 19 341 1280
2017-09-14 00:12:53 GMT 42.53723 -87.75442 18,550 19 337 768
2017-09-14 00:12:51 GMT 42.53487 -87.75553 18,550 19 335 704
2017-09-14 00:12:48 GMT 42.53064 -87.75751 18,525 18 332 448
2017-09-14 00:12:41 GMT 42.52112 -87.76191 18,450 17 323 704
2017-09-14 00:12:36 GMT 42.51228 -87.76566 18,375 17 320 1088
2017-09-14 00:12:32 GMT 42.50638 -87.76803 18,250 15 315 2176
2017-09-14 00:12:31 GMT 42.50638 -87.76803 18,250 15 315 2176
2017-09-14 00:12:25 GMT 42.49741 -87.77134 18,025 14 314 2304
2017-09-14 00:12:20 GMT 42.48995 -87.77399 17,825 14 313 2304
2017-09-14 00:12:19 GMT 42.48995 -87.77399 17,825 14 313 2304
2017-09-14 00:12:18 GMT 42.48642 -87.77514 17,750 14 313 2240
2017-09-14 00:12:15 GMT 42.48432 -87.77584 17,700 14 312 2304
2017-09-14 00:12:13 GMT 42.48079 -87.77708 17,600 14 312 2304
2017-09-14 00:12:10 GMT 42.47631 -87.77859 17,475 13 311 2304
2017-09-14 00:12:09 GMT 42.47548 -87.77883 17,450 13 311 2304
2017-09-14 00:12:06 GMT 42.47172 -87.78014 17,350 13 311 2304
2017-09-14 00:12:03 GMT 42.46667 -87.78178 17,225 13 309 2304
2017-09-14 00:11:59 GMT 42.46124 -87.78357 17,075 13 308 2496
2017-09-14 00:11:54 GMT 42.45419 -87.78594 16,875 13 308 2880
2017-09-14 00:11:52 GMT 42.45145 -87.78688 16,775 13 308 2880
2017-09-14 00:11:49 GMT 42.44577 -87.78881 16,600 14 308 2944
2017-09-14 00:11:48 GMT 42.44628 -87.78862 16,625 14 308 2944
2017-09-14 00:11:38 GMT 42.43218 -87.79360 16,175 15 308 2240
2017-09-14 00:11:36 GMT 42.42999 -87.79437 16,125 15 308 2240
2017-09-14 00:11:29 GMT 42.41963 -87.79843 15,900 16 304 1472
2017-09-14 00:11:27 GMT 42.41705 -87.79948 15,850 16 304 1472
2017-09-14 00:11:26 GMT 42.41640 -87.79980 15,825 16 303 1472
2017-09-14 00:11:20 GMT 42.40654 -87.80386 15,650 17 297 1600
2017-09-14 00:11:17 GMT 42.40290 -87.80542 15,575 17 295 1856
2017-09-14 00:11:17 GMT 42.40290 -87.80542 15,575 17 295 1856
2017-09-14 00:11:15 GMT 42.40160 -87.80598 15,550 17 295 1856
2017-09-14 00:11:09 GMT 42.39432 -87.80898 15,350 16 291 2432
2017-09-14 00:11:06 GMT 42.38956 -87.81091 15,200 15 290 2880
2017-09-14 00:11:06 GMT 42.38956 -87.81091 15,200 16 290 2752
2017-09-14 00:11:06 GMT 42.38956 -87.81091 15,200 15 290 3072
2017-09-14 00:11:05 GMT 42.38875 -87.81123 15,175 15 290 2880
2017-09-14 00:10:55 GMT 42.37520 -87.81589 14,650 12 292 3264
2017-09-14 00:10:55 GMT 42.37520 -87.81589 14,650 12 292 3264
2017-09-14 00:10:55 GMT 42.37520 -87.81589 14,650 11 292 3264
2017-09-14 00:10:46 GMT 42.36417 -87.81883 14,225 9 293 3072
2017-09-14 00:10:45 GMT 42.36081 -87.81953 14,100 8 294 2944
2017-09-14 00:10:44 GMT 42.35934 -87.81984 14,050 8 294 2944
2017-09-14 00:10:38 GMT 42.35192 -87.82113 13,800 6 294 2752
2017-09-14 00:10:33 GMT 42.34634 -87.82190 13,625 5 293 2688
2017-09-14 00:10:32 GMT 42.34515 -87.82202 13,600 5 293 2688
2017-09-14 00:10:31 GMT 42.34314 -87.82233 13,525 5 293 2688
2017-09-14 00:10:26 GMT 42.33610 -87.82317 13,325 4 292 2560
2017-09-14 00:10:23 GMT 42.33195 -87.82362 13,200 4 290 2496
2017-09-14 00:10:22 GMT 42.33060 -87.82375 13,150 4 289 2432
2017-09-14 00:10:18 GMT 42.32446 -87.82439 12,975 3 287 2368
2017-09-14 00:10:13 GMT 42.31771 -87.82496 12,775 3 286 2368
2017-09-14 00:10:13 GMT 42.31771 -87.82496 12,775 3 285 2368
2017-09-14 00:10:13 GMT 42.31771 -87.82496 12,775 3 286 2368
2017-09-14 00:10:12 GMT 42.31771 -87.82496 12,775 3 286 2368
2017-09-14 00:10:06 GMT 42.31058 -87.82554 12,575 3 283 2368
2017-09-14 00:10:06 GMT 42.30979 -87.82560 12,575 3 281 2432
2017-09-14 00:10:02 GMT 42.30331 -87.82608 12,375 3 279 2624
2017-09-14 00:09:59 GMT 42.30058 -87.82624 12,275 3 280 2368
2017-09-14 00:09:56 GMT 42.29672 -87.82658 12,150 3 278 2816
2017-09-14 00:09:51 GMT 42.29018 -87.82714 11,925 4 276 3200
2017-09-14 00:09:50 GMT 42.28964 -87.82713 11,900 4 276 3264
2017-09-14 00:09:45 GMT 42.28363 -87.82784 11,650 5 277 3200
2017-09-14 00:09:45 GMT 42.28289 -87.82790 11,625 5 277 3200
2017-09-14 00:09:40 GMT 42.27676 -87.82870 11,375 5 277 3072
2017-09-14 00:09:40 GMT 42.27626 -87.82876 11,350 5 277 3072
2017-09-14 00:09:35 GMT 42.26990 -87.82956 11,125 5 276 2944
2017-09-14 00:09:35 GMT 42.26990 -87.82956 11,125 5 276 2944
2017-09-14 00:09:30 GMT 42.26303 -87.83051 10,875 5 275 2752
2017-09-14 00:09:29 GMT 42.26240 -87.83058 10,850 5 275 2752
2017-09-14 00:09:29 GMT 42.26240 -87.83058 10,850 5 275 2752
2017-09-14 00:09:25 GMT 42.25671 -87.83132 10,650 5 273 2752
2017-09-14 00:09:24 GMT 42.25594 -87.83139 10,625 5 273 2752
2017-09-14 00:09:20 GMT 42.24994 -87.83213 10,400 5 271 3072
2017-09-14 00:09:18 GMT 42.24930 -87.83220 10,375 5 271 3136
2017-09-14 00:09:18 GMT 42.24880 -87.83226 10,350 5 271 3136
2017-09-14 00:09:15 GMT 42.24353 -87.83282 10,150 4 270 3328
2017-09-14 00:09:13 GMT 42.24243 -87.83295 10,100 4 270 3392
2017-09-14 00:09:09 GMT 42.23616 -87.83357 9,825 3 271 3584
2017-09-14 00:09:08 GMT 42.23616 -87.83357 9,825 3 271 3584
2017-09-14 00:09:07 GMT 42.23568 -87.83365 9,800 3 271 3520
2017-09-14 00:09:04 GMT 42.23038 -87.83410 9,550 3 272 3392
2017-09-14 00:09:01 GMT 42.22651 -87.83448 9,400 3 272 3392
2017-09-14 00:08:58 GMT 42.22197 -87.83482 9,200 2 271 3072
2017-09-14 00:08:57 GMT 42.22270 -87.83476 9,250 2 271 3072
2017-09-14 00:08:55 GMT 42.22009 -87.83494 9,125 2 271 3136
2017-09-14 00:08:51 GMT 42.21520 -87.83525 8,925 2 270 3328
2017-09-14 00:08:50 GMT 42.21408 -87.83537 8,875 3 270 3968
2017-09-14 00:08:48 GMT 42.21082 -87.83557 8,725 3 272 4032
2017-09-14 00:08:45 GMT 42.20719 -87.83589 8,550 3 270 3968
2017-09-14 00:08:43 GMT 42.20356 -87.83614 8,350 3 271 4096
2017-09-14 00:08:36 GMT 42.19527 -87.83684 7,925 3 273 4160
2017-09-14 00:08:34 GMT 42.19411 -87.83697 7,875 3 273 4160
2017-09-14 00:08:32 GMT 42.19070 -87.83725 7,700 3 275 3776
2017-09-14 00:08:25 GMT 42.18066 -87.83812 7,250 3 275 3456
2017-09-14 00:08:22 GMT 42.17670 -87.83844 7,075 2 275 3584
2017-09-14 00:08:16 GMT 42.16958 -87.83889 6,750 2 274 3328
2017-09-14 00:08:14 GMT 42.16882 -87.83894 6,725 2 274 3328
2017-09-14 00:08:11 GMT 42.16376 -87.83914 6,500 1 273 3456
2017-09-14 00:08:05 GMT 42.15566 -87.83946 6,175 1 272 2944
2017-09-14 00:08:02 GMT 42.15240 -87.83959 6,050 1 270 2688
2017-09-14 00:08:00 GMT 42.15031 -87.83965 5,975 1 269 2240
2017-09-14 00:07:53 GMT 42.14151 -87.84004 5,750 3 264 1600
2017-09-14 00:07:51 GMT 42.13916 -87.84025 5,700 3 263 1472
2017-09-14 00:07:49 GMT 42.13746 -87.84036 5,675 4 262 1472
2017-09-14 00:07:43 GMT 42.12913 -87.84137 5,500 5 260 1344
2017-09-14 00:07:41 GMT 42.12744 -87.84162 5,475 6 260 1216
2017-09-14 00:07:39 GMT 42.12447 -87.84206 5,425 6 260 1280
2017-09-14 00:07:34 GMT 42.11833 -87.84306 5,350 7 261 1216
2017-09-14 00:07:31 GMT 42.11581 -87.84343 5,275 6 262 1216
2017-09-14 00:07:29 GMT 42.11157 -87.84413 5,225 6 264 1088
2017-09-14 00:07:25 GMT 42.10697 -87.84489 5,150 7 266 768
2017-09-14 00:07:21 GMT 42.10240 -87.84566 5,100 7 266 1088
2017-09-14 00:07:18 GMT 42.09887 -87.84630 5,025 7 265 1920
2017-09-14 00:07:12 GMT 42.09221 -87.84757 4,825 7 262 2496
2017-09-14 00:07:10 GMT 42.09018 -87.84793 4,775 7 261 2240
2017-09-14 00:07:07 GMT 42.08667 -87.84860 4,675 7 260 2048
2017-09-14 00:07:02 GMT 42.08061 -87.84955 4,500 4 255 2240
2017-09-14 00:07:00 GMT 42.07732 -87.84993 4,400 2 254 2240
2017-09-14 00:06:57 GMT 42.07388 -87.85017 4,275 1 253 2304
2017-09-14 00:06:56 GMT 42.07320 -87.85024 4,275 1 253 2304
2017-09-14 00:06:54 GMT 42.06958 -87.85026 4,150 0 251 2496
2017-09-14 00:06:52 GMT 42.06772 -87.85026 4,075 0 250 2368
2017-09-14 00:06:50 GMT 42.06519 -87.85024 4,000 0 249 2496
2017-09-14 00:06:46 GMT 42.06181 -87.85019 3,875 0 248 2496
2017-09-14 00:06:44 GMT 42.05864 -87.85017 3,775 0 247 2624
2017-09-14 00:06:39 GMT 42.05250 -87.85007 3,575 0 244 1792
2017-09-14 00:06:35 GMT 42.04944 -87.85005 3,500 0 243 1472
2017-09-14 00:06:33 GMT 42.04533 -87.85007 3,425 0 239 1344
2017-09-14 00:06:28 GMT 42.04028 -87.85011 3,300 0 232 1344
2017-09-14 00:06:25 GMT 42.03849 -87.85019 3,275 1 229 1344
2017-09-14 00:06:21 GMT 42.03323 -87.85038 3,175 1 222 1792
2017-09-14 00:06:17 GMT 42.02871 -87.85058 3,050 1 219 1600
2017-09-14 00:06:15 GMT 42.02760 -87.85061 3,025 1 217 1600
2017-09-14 00:06:08 GMT 42.02033 -87.85089 2,825 1 213 1728
2017-09-14 00:06:06 GMT 42.01831 -87.85092 2,750 2 208 1920
2017-09-14 00:06:04 GMT 42.01735 -87.85099 2,725 2 208 1920
2017-09-14 00:05:59 GMT 42.01153 -87.85141 2,575 5 200 1152
2017-09-14 00:05:56 GMT 42.00938 -87.85167 2,550 10 192 896
2017-09-14 00:05:53 GMT 42.00682 -87.85205 2,500 7 197 704
2017-09-14 00:05:48 GMT 42.00220 -87.85323 2,425 15 187 448
2017-09-14 00:05:44 GMT 41.99808 -87.85517 2,400 26 179 704
2017-09-14 00:05:39 GMT 41.99451 -87.85816 2,325 39 171 768
2017-09-14 00:05:34 GMT 41.99185 -87.86166 2,250 50 166 1472

Making use of Plane Finder data

You are free to use the raw flight data, aircraft information and images provided in this report for your own purposes provided the data is correctly attributed to Plane Finder. We ask that you please credit Plane Finder and link to planefinder.net in close proximity to the content.

Optionally one of the following logos (no smaller then 150x24px) can be used and must link to planefinder.net

Embedding the Plane Finder map

You are welcome to embed the Plane Finder playback map on your website to offer visitors a more interactive experience. We suggest using the following HTML code:

<iframe src="//planefinder.net/data/report/UA152-N17126-7700-squawk-2017-09-14/map" width="800" height="600" seamless="seamless"></iframe>

Where our data comes from

Plane Finder has a global network of data feeds and antenna radars that receive data broadcast directly from aircraft. The primary technologies used are ADS-B and MLAT. We also show feeds from the FAA and a FLARM glider feed.

Click here to find out more about the Plane Finder network.

How we collect our data